<?xml version="1.0" encoding="UTF-8" standalone="no" ?>
<gpx xmlns="http://www.topografix.com/GPX/1/1" xmlns:xsi="http://www.w3.org/2001/XMLSchema-instance" xsi:schemaLocation="http://www.topografix.com/GPX/1/1 http://www.topografix.com/GPX/1/1/gpx.xsd" version="1.1" creator="VisuGPX - https://www.visugpx.com">
  <metadata>
    <name>Le Vallon Dol dans l'Étoile * (Marseille 13)</name>
    <desc><![CDATA[Batarelle haute, pistes et petits chemins autour de la grotte Loubière et le Bassin du Vallon Dol]]></desc>
  </metadata>
  <trk>
    <name><![CDATA[BATARELLE 16:06:15]]></name>
    <trkseg>
      <trkpt lat="43.3603" lon="5.41269">
        <ele>65.99</ele>
        <time>2016-12-18T09:13:55Z</time>
      </trkpt>
      <trkpt lat="43.36033" lon="5.41266">
        <ele>67.43</ele>
        <time>2016-12-18T09:14:10Z</time>
      </trkpt>
      <trkpt lat="43.36047" lon="5.41275">
        <ele>69.83</ele>
        <time>2016-12-18T09:14:25Z</time>
      </trkpt>
      <trkpt lat="43.36051" lon="5.41276">
        <ele>71.76</ele>
        <time>2016-12-18T09:14:39Z</time>
      </trkpt>
      <trkpt lat="43.36051" lon="5.41276">
        <ele>72.24</ele>
        <time>2016-12-18T09:14:42Z</time>
      </trkpt>
      <trkpt lat="43.36056" lon="5.4128">
        <ele>73.2</ele>
        <time>2016-12-18T09:14:47Z</time>
      </trkpt>
      <trkpt lat="43.36073" lon="5.41287">
        <ele>76.08</ele>
        <time>2016-12-18T09:15:02Z</time>
      </trkpt>
      <trkpt lat="43.36085" lon="5.41293">
        <ele>78.97</ele>
        <time>2016-12-18T09:15:13Z</time>
      </trkpt>
      <trkpt lat="43.36088" lon="5.41295">
        <ele>78.97</ele>
        <time>2016-12-18T09:15:16Z</time>
      </trkpt>
      <trkpt lat="43.36107" lon="5.41296">
        <ele>81.37</ele>
        <time>2016-12-18T09:15:31Z</time>
      </trkpt>
      <trkpt lat="43.36124" lon="5.41296">
        <ele>83.77</ele>
        <time>2016-12-18T09:15:45Z</time>
      </trkpt>
      <trkpt lat="43.36142" lon="5.41297">
        <ele>86.18</ele>
        <time>2016-12-18T09:15:59Z</time>
      </trkpt>
      <trkpt lat="43.36147" lon="5.41297">
        <ele>86.18</ele>
        <time>2016-12-18T09:16:03Z</time>
      </trkpt>
      <trkpt lat="43.36169" lon="5.41297">
        <ele>88.1</ele>
        <time>2016-12-18T09:16:20Z</time>
      </trkpt>
      <trkpt lat="43.3619" lon="5.41298">
        <ele>89.54</ele>
        <time>2016-12-18T09:16:36Z</time>
      </trkpt>
      <trkpt lat="43.36199" lon="5.41298">
        <ele>90.5</ele>
        <time>2016-12-18T09:16:43Z</time>
      </trkpt>
      <trkpt lat="43.36215" lon="5.41302">
        <ele>90.98</ele>
        <time>2016-12-18T09:16:56Z</time>
      </trkpt>
      <trkpt lat="43.36233" lon="5.4131">
        <ele>91.94</ele>
        <time>2016-12-18T09:17:10Z</time>
      </trkpt>
      <trkpt lat="43.36251" lon="5.41327">
        <ele>93.39</ele>
        <time>2016-12-18T09:17:27Z</time>
      </trkpt>
      <trkpt lat="43.36257" lon="5.41336">
        <ele>93.87</ele>
        <time>2016-12-18T09:17:35Z</time>
      </trkpt>
      <trkpt lat="43.36257" lon="5.4134">
        <ele>95.79</ele>
        <time>2016-12-18T09:17:52Z</time>
      </trkpt>
      <trkpt lat="43.36254" lon="5.41357">
        <ele>97.71</ele>
        <time>2016-12-18T09:18:09Z</time>
      </trkpt>
      <trkpt lat="43.36254" lon="5.41357">
        <ele>98.67</ele>
        <time>2016-12-18T09:18:22Z</time>
      </trkpt>
      <trkpt lat="43.36256" lon="5.4138">
        <ele>100.11</ele>
        <time>2016-12-18T09:18:37Z</time>
      </trkpt>
      <trkpt lat="43.36257" lon="5.41404">
        <ele>101.56</ele>
        <time>2016-12-18T09:18:52Z</time>
      </trkpt>
      <trkpt lat="43.36259" lon="5.41431">
        <ele>103</ele>
        <time>2016-12-18T09:19:07Z</time>
      </trkpt>
      <trkpt lat="43.36259" lon="5.41437">
        <ele>103.48</ele>
        <time>2016-12-18T09:19:11Z</time>
      </trkpt>
      <trkpt lat="43.36261" lon="5.41461">
        <ele>105.4</ele>
        <time>2016-12-18T09:19:25Z</time>
      </trkpt>
      <trkpt lat="43.36261" lon="5.41472">
        <ele>105.88</ele>
        <time>2016-12-18T09:19:31Z</time>
      </trkpt>
      <trkpt lat="43.36266" lon="5.41494">
        <ele>107.81</ele>
        <time>2016-12-18T09:19:43Z</time>
      </trkpt>
      <trkpt lat="43.36274" lon="5.4152">
        <ele>111.17</ele>
        <time>2016-12-18T09:19:59Z</time>
      </trkpt>
      <trkpt lat="43.36275" lon="5.41521">
        <ele>112.13</ele>
        <time>2016-12-18T09:20:14Z</time>
      </trkpt>
      <trkpt lat="43.36276" lon="5.41522">
        <ele>114.05</ele>
        <time>2016-12-18T09:20:36Z</time>
      </trkpt>
      <trkpt lat="43.36282" lon="5.41551">
        <ele>116.46</ele>
        <time>2016-12-18T09:20:52Z</time>
      </trkpt>
      <trkpt lat="43.36287" lon="5.41579">
        <ele>117.42</ele>
        <time>2016-12-18T09:21:07Z</time>
      </trkpt>
      <trkpt lat="43.36291" lon="5.41603">
        <ele>117.9</ele>
        <time>2016-12-18T09:21:20Z</time>
      </trkpt>
      <trkpt lat="43.36295" lon="5.4162">
        <ele>118.86</ele>
        <time>2016-12-18T09:21:33Z</time>
      </trkpt>
      <trkpt lat="43.36296" lon="5.41623">
        <ele>118.86</ele>
        <time>2016-12-18T09:21:35Z</time>
      </trkpt>
      <trkpt lat="43.36297" lon="5.4163">
        <ele>119.34</ele>
        <time>2016-12-18T09:21:39Z</time>
      </trkpt>
      <trkpt lat="43.36301" lon="5.41658">
        <ele>120.3</ele>
        <time>2016-12-18T09:21:55Z</time>
      </trkpt>
      <trkpt lat="43.36305" lon="5.41688">
        <ele>120.3</ele>
        <time>2016-12-18T09:22:12Z</time>
      </trkpt>
      <trkpt lat="43.36306" lon="5.41692">
        <ele>120.3</ele>
        <time>2016-12-18T09:22:15Z</time>
      </trkpt>
      <trkpt lat="43.36307" lon="5.41701">
        <ele>120.3</ele>
        <time>2016-12-18T09:22:21Z</time>
      </trkpt>
      <trkpt lat="43.36311" lon="5.41731">
        <ele>120.3</ele>
        <time>2016-12-18T09:22:39Z</time>
      </trkpt>
      <trkpt lat="43.36315" lon="5.41759">
        <ele>119.34</ele>
        <time>2016-12-18T09:22:55Z</time>
      </trkpt>
      <trkpt lat="43.36317" lon="5.41765">
        <ele>118.86</ele>
        <time>2016-12-18T09:22:59Z</time>
      </trkpt>
      <trkpt lat="43.36327" lon="5.41774">
        <ele>118.38</ele>
        <time>2016-12-18T09:23:10Z</time>
      </trkpt>
      <trkpt lat="43.36345" lon="5.41778">
        <ele>116.94</ele>
        <time>2016-12-18T09:23:27Z</time>
      </trkpt>
      <trkpt lat="43.36351" lon="5.41774">
        <ele>116.94</ele>
        <time>2016-12-18T09:23:33Z</time>
      </trkpt>
      <trkpt lat="43.36362" lon="5.41767">
        <ele>115.98</ele>
        <time>2016-12-18T09:23:43Z</time>
      </trkpt>
      <trkpt lat="43.36374" lon="5.41759">
        <ele>115.5</ele>
        <time>2016-12-18T09:23:53Z</time>
      </trkpt>
      <trkpt lat="43.36392" lon="5.41749">
        <ele>114.53</ele>
        <time>2016-12-18T09:24:09Z</time>
      </trkpt>
      <trkpt lat="43.36397" lon="5.41747">
        <ele>114.53</ele>
        <time>2016-12-18T09:24:14Z</time>
      </trkpt>
      <trkpt lat="43.36408" lon="5.41744">
        <ele>114.05</ele>
        <time>2016-12-18T09:24:23Z</time>
      </trkpt>
      <trkpt lat="43.36409" lon="5.41743">
        <ele>114.05</ele>
        <time>2016-12-18T09:24:28Z</time>
      </trkpt>
      <trkpt lat="43.3643" lon="5.41738">
        <ele>112.61</ele>
        <time>2016-12-18T09:24:44Z</time>
      </trkpt>
      <trkpt lat="43.36432" lon="5.41739">
        <ele>112.61</ele>
        <time>2016-12-18T09:24:46Z</time>
      </trkpt>
      <trkpt lat="43.3645" lon="5.41747">
        <ele>111.17</ele>
        <time>2016-12-18T09:25:03Z</time>
      </trkpt>
      <trkpt lat="43.36465" lon="5.41754">
        <ele>110.21</ele>
        <time>2016-12-18T09:25:16Z</time>
      </trkpt>
      <trkpt lat="43.36477" lon="5.41756">
        <ele>108.77</ele>
        <time>2016-12-18T09:25:27Z</time>
      </trkpt>
      <trkpt lat="43.36476" lon="5.41769">
        <ele>108.29</ele>
        <time>2016-12-18T09:25:37Z</time>
      </trkpt>
      <trkpt lat="43.36475" lon="5.41773">
        <ele>107.81</ele>
        <time>2016-12-18T09:25:39Z</time>
      </trkpt>
      <trkpt lat="43.36478" lon="5.41779">
        <ele>108.29</ele>
        <time>2016-12-18T09:25:43Z</time>
      </trkpt>
      <trkpt lat="43.36484" lon="5.41785">
        <ele>109.73</ele>
        <time>2016-12-18T09:25:49Z</time>
      </trkpt>
      <trkpt lat="43.36503" lon="5.41791">
        <ele>112.61</ele>
        <time>2016-12-18T09:26:05Z</time>
      </trkpt>
      <trkpt lat="43.36505" lon="5.41791">
        <ele>112.61</ele>
        <time>2016-12-18T09:26:07Z</time>
      </trkpt>
      <trkpt lat="43.36523" lon="5.41792">
        <ele>115.5</ele>
        <time>2016-12-18T09:26:21Z</time>
      </trkpt>
      <trkpt lat="43.36541" lon="5.41793">
        <ele>118.38</ele>
        <time>2016-12-18T09:26:36Z</time>
      </trkpt>
      <trkpt lat="43.36548" lon="5.41794">
        <ele>119.34</ele>
        <time>2016-12-18T09:26:49Z</time>
      </trkpt>
      <trkpt lat="43.36556" lon="5.41796">
        <ele>120.78</ele>
        <time>2016-12-18T09:27:01Z</time>
      </trkpt>
      <trkpt lat="43.36559" lon="5.41797">
        <ele>121.74</ele>
        <time>2016-12-18T09:27:20Z</time>
      </trkpt>
      <trkpt lat="43.36567" lon="5.41799">
        <ele>122.22</ele>
        <time>2016-12-18T09:27:26Z</time>
      </trkpt>
      <trkpt lat="43.36569" lon="5.41806">
        <ele>123.67</ele>
        <time>2016-12-18T09:27:31Z</time>
      </trkpt>
      <trkpt lat="43.36562" lon="5.41815">
        <ele>125.11</ele>
        <time>2016-12-18T09:27:38Z</time>
      </trkpt>
      <trkpt lat="43.36556" lon="5.41817">
        <ele>126.55</ele>
        <time>2016-12-18T09:27:44Z</time>
      </trkpt>
      <trkpt lat="43.36551" lon="5.41821">
        <ele>127.51</ele>
        <time>2016-12-18T09:27:48Z</time>
      </trkpt>
      <trkpt lat="43.36539" lon="5.41831">
        <ele>131.36</ele>
        <time>2016-12-18T09:28:00Z</time>
      </trkpt>
      <trkpt lat="43.36533" lon="5.41833">
        <ele>132.32</ele>
        <time>2016-12-18T09:28:05Z</time>
      </trkpt>
      <trkpt lat="43.36528" lon="5.41836">
        <ele>133.28</ele>
        <time>2016-12-18T09:28:10Z</time>
      </trkpt>
      <trkpt lat="43.3652" lon="5.41844">
        <ele>135.68</ele>
        <time>2016-12-18T09:28:18Z</time>
      </trkpt>
      <trkpt lat="43.36517" lon="5.41853">
        <ele>138.57</ele>
        <time>2016-12-18T09:28:33Z</time>
      </trkpt>
      <trkpt lat="43.36526" lon="5.41849">
        <ele>139.53</ele>
        <time>2016-12-18T09:28:42Z</time>
      </trkpt>
      <trkpt lat="43.36527" lon="5.41851">
        <ele>140.01</ele>
        <time>2016-12-18T09:28:52Z</time>
      </trkpt>
      <trkpt lat="43.36515" lon="5.41853">
        <ele>140.01</ele>
        <time>2016-12-18T09:29:07Z</time>
      </trkpt>
      <trkpt lat="43.36518" lon="5.41847">
        <ele>139.53</ele>
        <time>2016-12-18T09:29:14Z</time>
      </trkpt>
      <trkpt lat="43.36519" lon="5.41844">
        <ele>139.53</ele>
        <time>2016-12-18T09:29:16Z</time>
      </trkpt>
      <trkpt lat="43.36523" lon="5.41841">
        <ele>139.05</ele>
        <time>2016-12-18T09:29:20Z</time>
      </trkpt>
      <trkpt lat="43.36534" lon="5.41833">
        <ele>137.61</ele>
        <time>2016-12-18T09:29:31Z</time>
      </trkpt>
      <trkpt lat="43.3655" lon="5.41823">
        <ele>136.16</ele>
        <time>2016-12-18T09:29:47Z</time>
      </trkpt>
      <trkpt lat="43.36564" lon="5.41812">
        <ele>134.72</ele>
        <time>2016-12-18T09:30:04Z</time>
      </trkpt>
      <trkpt lat="43.36569" lon="5.41806">
        <ele>134.72</ele>
        <time>2016-12-18T09:30:21Z</time>
      </trkpt>
      <trkpt lat="43.36576" lon="5.41798">
        <ele>134.24</ele>
        <time>2016-12-18T09:30:29Z</time>
      </trkpt>
      <trkpt lat="43.36587" lon="5.41789">
        <ele>136.16</ele>
        <time>2016-12-18T09:30:44Z</time>
      </trkpt>
      <trkpt lat="43.36595" lon="5.41783">
        <ele>138.09</ele>
        <time>2016-12-18T09:30:54Z</time>
      </trkpt>
      <trkpt lat="43.36597" lon="5.41781">
        <ele>138.57</ele>
        <time>2016-12-18T09:31:10Z</time>
      </trkpt>
      <trkpt lat="43.36605" lon="5.41771">
        <ele>140.97</ele>
        <time>2016-12-18T09:31:24Z</time>
      </trkpt>
      <trkpt lat="43.36619" lon="5.41761">
        <ele>143.85</ele>
        <time>2016-12-18T09:31:41Z</time>
      </trkpt>
      <trkpt lat="43.36626" lon="5.41755">
        <ele>145.3</ele>
        <time>2016-12-18T09:31:55Z</time>
      </trkpt>
      <trkpt lat="43.36639" lon="5.41749">
        <ele>148.18</ele>
        <time>2016-12-18T09:32:11Z</time>
      </trkpt>
      <trkpt lat="43.36655" lon="5.41744">
        <ele>150.58</ele>
        <time>2016-12-18T09:32:28Z</time>
      </trkpt>
      <trkpt lat="43.36663" lon="5.41743">
        <ele>150.58</ele>
        <time>2016-12-18T09:32:34Z</time>
      </trkpt>
      <trkpt lat="43.36667" lon="5.41744">
        <ele>150.58</ele>
        <time>2016-12-18T09:32:38Z</time>
      </trkpt>
      <trkpt lat="43.36679" lon="5.41731">
        <ele>152.51</ele>
        <time>2016-12-18T09:32:52Z</time>
      </trkpt>
      <trkpt lat="43.36684" lon="5.41725">
        <ele>153.95</ele>
        <time>2016-12-18T09:32:58Z</time>
      </trkpt>
      <trkpt lat="43.36688" lon="5.41722">
        <ele>154.91</ele>
        <time>2016-12-18T09:33:02Z</time>
      </trkpt>
      <trkpt lat="43.36698" lon="5.41711">
        <ele>157.79</ele>
        <time>2016-12-18T09:33:14Z</time>
      </trkpt>
      <trkpt lat="43.36705" lon="5.41708">
        <ele>159.72</ele>
        <time>2016-12-18T09:33:22Z</time>
      </trkpt>
      <trkpt lat="43.36712" lon="5.41707">
        <ele>160.68</ele>
        <time>2016-12-18T09:33:28Z</time>
      </trkpt>
      <trkpt lat="43.36724" lon="5.41703">
        <ele>162.6</ele>
        <time>2016-12-18T09:33:39Z</time>
      </trkpt>
      <trkpt lat="43.36735" lon="5.41703">
        <ele>165</ele>
        <time>2016-12-18T09:33:52Z</time>
      </trkpt>
      <trkpt lat="43.36738" lon="5.41707">
        <ele>165.96</ele>
        <time>2016-12-18T09:34:07Z</time>
      </trkpt>
      <trkpt lat="43.36738" lon="5.41708">
        <ele>165.48</ele>
        <time>2016-12-18T09:34:09Z</time>
      </trkpt>
      <trkpt lat="43.36744" lon="5.41711">
        <ele>165.48</ele>
        <time>2016-12-18T09:34:14Z</time>
      </trkpt>
      <trkpt lat="43.3675" lon="5.41714">
        <ele>166.45</ele>
        <time>2016-12-18T09:34:33Z</time>
      </trkpt>
      <trkpt lat="43.36751" lon="5.41712">
        <ele>168.37</ele>
        <time>2016-12-18T09:35:06Z</time>
      </trkpt>
      <trkpt lat="43.36751" lon="5.41713">
        <ele>169.33</ele>
        <time>2016-12-18T09:35:35Z</time>
      </trkpt>
      <trkpt lat="43.36752" lon="5.41714">
        <ele>171.25</ele>
        <time>2016-12-18T09:36:09Z</time>
      </trkpt>
      <trkpt lat="43.36751" lon="5.41714">
        <ele>172.21</ele>
        <time>2016-12-18T09:36:31Z</time>
      </trkpt>
      <trkpt lat="43.36749" lon="5.41713">
        <ele>174.14</ele>
        <time>2016-12-18T09:37:13Z</time>
      </trkpt>
      <trkpt lat="43.3675" lon="5.41713">
        <ele>175.58</ele>
        <time>2016-12-18T09:37:47Z</time>
      </trkpt>
      <trkpt lat="43.36749" lon="5.41713">
        <ele>175.58</ele>
        <time>2016-12-18T09:38:15Z</time>
      </trkpt>
      <trkpt lat="43.36757" lon="5.41717">
        <ele>176.54</ele>
        <time>2016-12-18T09:38:32Z</time>
      </trkpt>
      <trkpt lat="43.36769" lon="5.41722">
        <ele>175.58</ele>
        <time>2016-12-18T09:38:46Z</time>
      </trkpt>
      <trkpt lat="43.36774" lon="5.41721">
        <ele>175.58</ele>
        <time>2016-12-18T09:38:59Z</time>
      </trkpt>
      <trkpt lat="43.36781" lon="5.41722">
        <ele>175.58</ele>
        <time>2016-12-18T09:39:07Z</time>
      </trkpt>
      <trkpt lat="43.36801" lon="5.41721">
        <ele>177.02</ele>
        <time>2016-12-18T09:39:24Z</time>
      </trkpt>
      <trkpt lat="43.36815" lon="5.41723">
        <ele>178.46</ele>
        <time>2016-12-18T09:39:38Z</time>
      </trkpt>
      <trkpt lat="43.36818" lon="5.41723">
        <ele>178.94</ele>
        <time>2016-12-18T09:39:40Z</time>
      </trkpt>
      <trkpt lat="43.36832" lon="5.41724">
        <ele>180.38</ele>
        <time>2016-12-18T09:39:52Z</time>
      </trkpt>
      <trkpt lat="43.36846" lon="5.41728">
        <ele>183.27</ele>
        <time>2016-12-18T09:40:06Z</time>
      </trkpt>
      <trkpt lat="43.36861" lon="5.41727">
        <ele>183.75</ele>
        <time>2016-12-18T09:40:22Z</time>
      </trkpt>
      <trkpt lat="43.36873" lon="5.41729">
        <ele>185.67</ele>
        <time>2016-12-18T09:40:33Z</time>
      </trkpt>
      <trkpt lat="43.36894" lon="5.41728">
        <ele>187.11</ele>
        <time>2016-12-18T09:40:50Z</time>
      </trkpt>
      <trkpt lat="43.369" lon="5.41725">
        <ele>187.59</ele>
        <time>2016-12-18T09:40:58Z</time>
      </trkpt>
      <trkpt lat="43.36911" lon="5.41707">
        <ele>189.52</ele>
        <time>2016-12-18T09:41:12Z</time>
      </trkpt>
      <trkpt lat="43.36913" lon="5.41703">
        <ele>190</ele>
        <time>2016-12-18T09:41:15Z</time>
      </trkpt>
      <trkpt lat="43.36919" lon="5.41689">
        <ele>191.92</ele>
        <time>2016-12-18T09:41:28Z</time>
      </trkpt>
      <trkpt lat="43.36924" lon="5.4167">
        <ele>192.88</ele>
        <time>2016-12-18T09:41:43Z</time>
      </trkpt>
      <trkpt lat="43.36927" lon="5.41663">
        <ele>193.84</ele>
        <time>2016-12-18T09:41:48Z</time>
      </trkpt>
      <trkpt lat="43.36939" lon="5.41653">
        <ele>195.28</ele>
        <time>2016-12-18T09:42:02Z</time>
      </trkpt>
      <trkpt lat="43.3695" lon="5.41645">
        <ele>196.25</ele>
        <time>2016-12-18T09:42:14Z</time>
      </trkpt>
      <trkpt lat="43.36967" lon="5.41643">
        <ele>198.65</ele>
        <time>2016-12-18T09:42:31Z</time>
      </trkpt>
      <trkpt lat="43.3697" lon="5.4164">
        <ele>198.65</ele>
        <time>2016-12-18T09:42:34Z</time>
      </trkpt>
      <trkpt lat="43.36979" lon="5.41631">
        <ele>200.09</ele>
        <time>2016-12-18T09:42:44Z</time>
      </trkpt>
      <trkpt lat="43.36995" lon="5.41624">
        <ele>201.05</ele>
        <time>2016-12-18T09:43:00Z</time>
      </trkpt>
      <trkpt lat="43.37012" lon="5.41626">
        <ele>202.49</ele>
        <time>2016-12-18T09:43:15Z</time>
      </trkpt>
      <trkpt lat="43.37031" lon="5.41629">
        <ele>203.46</ele>
        <time>2016-12-18T09:43:32Z</time>
      </trkpt>
      <trkpt lat="43.37046" lon="5.41624">
        <ele>205.86</ele>
        <time>2016-12-18T09:43:49Z</time>
      </trkpt>
      <trkpt lat="43.37053" lon="5.41621">
        <ele>206.34</ele>
        <time>2016-12-18T09:43:58Z</time>
      </trkpt>
      <trkpt lat="43.37074" lon="5.41609">
        <ele>207.78</ele>
        <time>2016-12-18T09:44:17Z</time>
      </trkpt>
      <trkpt lat="43.37086" lon="5.41599">
        <ele>210.19</ele>
        <time>2016-12-18T09:44:31Z</time>
      </trkpt>
      <trkpt lat="43.37093" lon="5.41591">
        <ele>209.7</ele>
        <time>2016-12-18T09:44:40Z</time>
      </trkpt>
      <trkpt lat="43.37106" lon="5.41582">
        <ele>212.11</ele>
        <time>2016-12-18T09:44:53Z</time>
      </trkpt>
      <trkpt lat="43.37116" lon="5.4157">
        <ele>214.51</ele>
        <time>2016-12-18T09:45:07Z</time>
      </trkpt>
      <trkpt lat="43.37116" lon="5.41569">
        <ele>214.51</ele>
        <time>2016-12-18T09:45:08Z</time>
      </trkpt>
      <trkpt lat="43.37122" lon="5.41555">
        <ele>216.91</ele>
        <time>2016-12-18T09:45:23Z</time>
      </trkpt>
      <trkpt lat="43.37122" lon="5.41552">
        <ele>218.84</ele>
        <time>2016-12-18T09:45:25Z</time>
      </trkpt>
      <trkpt lat="43.37125" lon="5.41535">
        <ele>220.76</ele>
        <time>2016-12-18T09:45:42Z</time>
      </trkpt>
      <trkpt lat="43.37124" lon="5.41517">
        <ele>220.76</ele>
        <time>2016-12-18T09:45:54Z</time>
      </trkpt>
      <trkpt lat="43.37129" lon="5.41504">
        <ele>221.72</ele>
        <time>2016-12-18T09:46:04Z</time>
      </trkpt>
      <trkpt lat="43.3713" lon="5.41501">
        <ele>221.72</ele>
        <time>2016-12-18T09:46:22Z</time>
      </trkpt>
      <trkpt lat="43.37136" lon="5.41495">
        <ele>223.64</ele>
        <time>2016-12-18T09:46:44Z</time>
      </trkpt>
      <trkpt lat="43.37144" lon="5.41494">
        <ele>223.64</ele>
        <time>2016-12-18T09:46:51Z</time>
      </trkpt>
      <trkpt lat="43.37161" lon="5.41498">
        <ele>226.05</ele>
        <time>2016-12-18T09:47:07Z</time>
      </trkpt>
      <trkpt lat="43.37175" lon="5.41498">
        <ele>227.01</ele>
        <time>2016-12-18T09:47:25Z</time>
      </trkpt>
      <trkpt lat="43.37183" lon="5.41502">
        <ele>227.97</ele>
        <time>2016-12-18T09:47:34Z</time>
      </trkpt>
      <trkpt lat="43.37188" lon="5.41505">
        <ele>228.93</ele>
        <time>2016-12-18T09:47:39Z</time>
      </trkpt>
      <trkpt lat="43.37198" lon="5.415">
        <ele>230.37</ele>
        <time>2016-12-18T09:47:50Z</time>
      </trkpt>
      <trkpt lat="43.37205" lon="5.41492">
        <ele>231.33</ele>
        <time>2016-12-18T09:48:04Z</time>
      </trkpt>
      <trkpt lat="43.37218" lon="5.41483">
        <ele>232.3</ele>
        <time>2016-12-18T09:48:19Z</time>
      </trkpt>
      <trkpt lat="43.37221" lon="5.4148">
        <ele>234.22</ele>
        <time>2016-12-18T09:48:23Z</time>
      </trkpt>
      <trkpt lat="43.37223" lon="5.41477">
        <ele>234.7</ele>
        <time>2016-12-18T09:48:27Z</time>
      </trkpt>
      <trkpt lat="43.37232" lon="5.41468">
        <ele>237.1</ele>
        <time>2016-12-18T09:48:41Z</time>
      </trkpt>
      <trkpt lat="43.37251" lon="5.41459">
        <ele>238.54</ele>
        <time>2016-12-18T09:48:59Z</time>
      </trkpt>
      <trkpt lat="43.37263" lon="5.41458">
        <ele>239.51</ele>
        <time>2016-12-18T09:49:10Z</time>
      </trkpt>
      <trkpt lat="43.37282" lon="5.41457">
        <ele>240.47</ele>
        <time>2016-12-18T09:49:29Z</time>
      </trkpt>
      <trkpt lat="43.3729" lon="5.41458">
        <ele>240.95</ele>
        <time>2016-12-18T09:49:36Z</time>
      </trkpt>
      <trkpt lat="43.37298" lon="5.41457">
        <ele>242.39</ele>
        <time>2016-12-18T09:49:50Z</time>
      </trkpt>
      <trkpt lat="43.37303" lon="5.41459">
        <ele>243.35</ele>
        <time>2016-12-18T09:49:57Z</time>
      </trkpt>
      <trkpt lat="43.37323" lon="5.41459">
        <ele>245.27</ele>
        <time>2016-12-18T09:50:16Z</time>
      </trkpt>
      <trkpt lat="43.37334" lon="5.41461">
        <ele>246.72</ele>
        <time>2016-12-18T09:50:30Z</time>
      </trkpt>
      <trkpt lat="43.37354" lon="5.41469">
        <ele>248.64</ele>
        <time>2016-12-18T09:50:49Z</time>
      </trkpt>
      <trkpt lat="43.37369" lon="5.41469">
        <ele>251.52</ele>
        <time>2016-12-18T09:51:05Z</time>
      </trkpt>
      <trkpt lat="43.37379" lon="5.41469">
        <ele>252.96</ele>
        <time>2016-12-18T09:51:15Z</time>
      </trkpt>
      <trkpt lat="43.37383" lon="5.4147">
        <ele>253.44</ele>
        <time>2016-12-18T09:51:19Z</time>
      </trkpt>
      <trkpt lat="43.37402" lon="5.41477">
        <ele>255.37</ele>
        <time>2016-12-18T09:51:37Z</time>
      </trkpt>
      <trkpt lat="43.37412" lon="5.41479">
        <ele>256.81</ele>
        <time>2016-12-18T09:51:52Z</time>
      </trkpt>
      <trkpt lat="43.37412" lon="5.4148">
        <ele>257.77</ele>
        <time>2016-12-18T09:52:24Z</time>
      </trkpt>
      <trkpt lat="43.37415" lon="5.41488">
        <ele>258.25</ele>
        <time>2016-12-18T09:52:42Z</time>
      </trkpt>
      <trkpt lat="43.37417" lon="5.41498">
        <ele>258.73</ele>
        <time>2016-12-18T09:53:00Z</time>
      </trkpt>
      <trkpt lat="43.37413" lon="5.41513">
        <ele>260.65</ele>
        <time>2016-12-18T09:53:16Z</time>
      </trkpt>
      <trkpt lat="43.37412" lon="5.41524">
        <ele>263.54</ele>
        <time>2016-12-18T09:53:28Z</time>
      </trkpt>
      <trkpt lat="43.37412" lon="5.41524">
        <ele>264.02</ele>
        <time>2016-12-18T09:53:45Z</time>
      </trkpt>
      <trkpt lat="43.37413" lon="5.4152">
        <ele>263.06</ele>
        <time>2016-12-18T09:53:54Z</time>
      </trkpt>
      <trkpt lat="43.37413" lon="5.41516">
        <ele>263.06</ele>
        <time>2016-12-18T09:53:56Z</time>
      </trkpt>
      <trkpt lat="43.37416" lon="5.415">
        <ele>261.14</ele>
        <time>2016-12-18T09:54:08Z</time>
      </trkpt>
      <trkpt lat="43.37417" lon="5.41494">
        <ele>260.65</ele>
        <time>2016-12-18T09:54:12Z</time>
      </trkpt>
      <trkpt lat="43.37415" lon="5.41476">
        <ele>261.62</ele>
        <time>2016-12-18T09:54:26Z</time>
      </trkpt>
      <trkpt lat="43.37421" lon="5.41472">
        <ele>264.02</ele>
        <time>2016-12-18T09:54:45Z</time>
      </trkpt>
      <trkpt lat="43.37425" lon="5.41462">
        <ele>267.38</ele>
        <time>2016-12-18T09:55:01Z</time>
      </trkpt>
      <trkpt lat="43.37425" lon="5.4145">
        <ele>268.35</ele>
        <time>2016-12-18T09:55:14Z</time>
      </trkpt>
      <trkpt lat="43.37424" lon="5.41448">
        <ele>268.83</ele>
        <time>2016-12-18T09:55:30Z</time>
      </trkpt>
      <trkpt lat="43.37417" lon="5.41443">
        <ele>271.23</ele>
        <time>2016-12-18T09:55:47Z</time>
      </trkpt>
      <trkpt lat="43.37411" lon="5.41439">
        <ele>272.19</ele>
        <time>2016-12-18T09:55:57Z</time>
      </trkpt>
      <trkpt lat="43.37403" lon="5.41435">
        <ele>273.63</ele>
        <time>2016-12-18T09:56:07Z</time>
      </trkpt>
      <trkpt lat="43.37387" lon="5.41429">
        <ele>275.56</ele>
        <time>2016-12-18T09:56:23Z</time>
      </trkpt>
      <trkpt lat="43.37372" lon="5.41421">
        <ele>276.52</ele>
        <time>2016-12-18T09:56:37Z</time>
      </trkpt>
      <trkpt lat="43.37356" lon="5.41403">
        <ele>277</ele>
        <time>2016-12-18T09:56:53Z</time>
      </trkpt>
      <trkpt lat="43.37349" lon="5.41392">
        <ele>278.44</ele>
        <time>2016-12-18T09:57:04Z</time>
      </trkpt>
      <trkpt lat="43.37349" lon="5.41387">
        <ele>278.92</ele>
        <time>2016-12-18T09:57:08Z</time>
      </trkpt>
      <trkpt lat="43.37349" lon="5.41381">
        <ele>279.4</ele>
        <time>2016-12-18T09:57:12Z</time>
      </trkpt>
      <trkpt lat="43.37347" lon="5.41367">
        <ele>280.84</ele>
        <time>2016-12-18T09:57:22Z</time>
      </trkpt>
      <trkpt lat="43.37344" lon="5.41353">
        <ele>280.84</ele>
        <time>2016-12-18T09:57:33Z</time>
      </trkpt>
      <trkpt lat="43.37342" lon="5.41344">
        <ele>282.28</ele>
        <time>2016-12-18T09:57:47Z</time>
      </trkpt>
      <trkpt lat="43.37342" lon="5.41344">
        <ele>282.77</ele>
        <time>2016-12-18T09:58:10Z</time>
      </trkpt>
      <trkpt lat="43.37343" lon="5.41342">
        <ele>283.25</ele>
        <time>2016-12-18T09:58:23Z</time>
      </trkpt>
      <trkpt lat="43.37347" lon="5.41341">
        <ele>283.73</ele>
        <time>2016-12-18T09:58:34Z</time>
      </trkpt>
      <trkpt lat="43.37351" lon="5.4134">
        <ele>284.69</ele>
        <time>2016-12-18T09:58:38Z</time>
      </trkpt>
      <trkpt lat="43.37353" lon="5.41342">
        <ele>284.69</ele>
        <time>2016-12-18T09:58:40Z</time>
      </trkpt>
      <trkpt lat="43.37376" lon="5.4134">
        <ele>287.09</ele>
        <time>2016-12-18T09:58:59Z</time>
      </trkpt>
      <trkpt lat="43.37401" lon="5.41335">
        <ele>289.49</ele>
        <time>2016-12-18T09:59:16Z</time>
      </trkpt>
      <trkpt lat="43.3742" lon="5.4133">
        <ele>291.42</ele>
        <time>2016-12-18T09:59:32Z</time>
      </trkpt>
      <trkpt lat="43.37438" lon="5.41318">
        <ele>292.86</ele>
        <time>2016-12-18T09:59:49Z</time>
      </trkpt>
      <trkpt lat="43.3745" lon="5.41304">
        <ele>294.3</ele>
        <time>2016-12-18T10:00:04Z</time>
      </trkpt>
      <trkpt lat="43.37452" lon="5.41302">
        <ele>294.78</ele>
        <time>2016-12-18T10:00:11Z</time>
      </trkpt>
      <trkpt lat="43.37453" lon="5.41299">
        <ele>294.78</ele>
        <time>2016-12-18T10:00:13Z</time>
      </trkpt>
      <trkpt lat="43.37463" lon="5.41282">
        <ele>295.74</ele>
        <time>2016-12-18T10:00:25Z</time>
      </trkpt>
      <trkpt lat="43.3747" lon="5.41264">
        <ele>296.7</ele>
        <time>2016-12-18T10:00:38Z</time>
      </trkpt>
      <trkpt lat="43.37474" lon="5.41252">
        <ele>297.18</ele>
        <time>2016-12-18T10:00:51Z</time>
      </trkpt>
      <trkpt lat="43.37474" lon="5.41252">
        <ele>297.18</ele>
        <time>2016-12-18T10:01:14Z</time>
      </trkpt>
      <trkpt lat="43.37474" lon="5.41252">
        <ele>297.67</ele>
        <time>2016-12-18T10:01:15Z</time>
      </trkpt>
      <trkpt lat="43.37479" lon="5.41235">
        <ele>297.67</ele>
        <time>2016-12-18T10:01:29Z</time>
      </trkpt>
      <trkpt lat="43.3749" lon="5.41213">
        <ele>297.67</ele>
        <time>2016-12-18T10:01:42Z</time>
      </trkpt>
      <trkpt lat="43.37499" lon="5.41194">
        <ele>298.15</ele>
        <time>2016-12-18T10:01:54Z</time>
      </trkpt>
      <trkpt lat="43.37506" lon="5.41169">
        <ele>296.7</ele>
        <time>2016-12-18T10:02:07Z</time>
      </trkpt>
      <trkpt lat="43.37508" lon="5.41166">
        <ele>297.18</ele>
        <time>2016-12-18T10:02:10Z</time>
      </trkpt>
      <trkpt lat="43.37513" lon="5.41157">
        <ele>296.7</ele>
        <time>2016-12-18T10:02:16Z</time>
      </trkpt>
      <trkpt lat="43.37513" lon="5.41132">
        <ele>296.22</ele>
        <time>2016-12-18T10:02:30Z</time>
      </trkpt>
      <trkpt lat="43.37511" lon="5.41112">
        <ele>295.26</ele>
        <time>2016-12-18T10:02:41Z</time>
      </trkpt>
      <trkpt lat="43.37505" lon="5.41095">
        <ele>294.78</ele>
        <time>2016-12-18T10:02:52Z</time>
      </trkpt>
      <trkpt lat="43.375" lon="5.41075">
        <ele>294.3</ele>
        <time>2016-12-18T10:03:04Z</time>
      </trkpt>
      <trkpt lat="43.37497" lon="5.41065">
        <ele>294.78</ele>
        <time>2016-12-18T10:03:11Z</time>
      </trkpt>
      <trkpt lat="43.37496" lon="5.41055">
        <ele>294.78</ele>
        <time>2016-12-18T10:03:18Z</time>
      </trkpt>
      <trkpt lat="43.3749" lon="5.41034">
        <ele>294.78</ele>
        <time>2016-12-18T10:03:31Z</time>
      </trkpt>
      <trkpt lat="43.37479" lon="5.41015">
        <ele>294.3</ele>
        <time>2016-12-18T10:03:44Z</time>
      </trkpt>
      <trkpt lat="43.37477" lon="5.41009">
        <ele>294.3</ele>
        <time>2016-12-18T10:03:48Z</time>
      </trkpt>
      <trkpt lat="43.37473" lon="5.41">
        <ele>293.82</ele>
        <time>2016-12-18T10:04:02Z</time>
      </trkpt>
      <trkpt lat="43.37473" lon="5.41003">
        <ele>294.3</ele>
        <time>2016-12-18T10:04:21Z</time>
      </trkpt>
      <trkpt lat="43.37475" lon="5.41007">
        <ele>294.78</ele>
        <time>2016-12-18T10:04:23Z</time>
      </trkpt>
      <trkpt lat="43.37487" lon="5.41023">
        <ele>295.74</ele>
        <time>2016-12-18T10:04:38Z</time>
      </trkpt>
      <trkpt lat="43.37494" lon="5.41035">
        <ele>296.7</ele>
        <time>2016-12-18T10:04:48Z</time>
      </trkpt>
      <trkpt lat="43.37504" lon="5.41022">
        <ele>296.7</ele>
        <time>2016-12-18T10:05:01Z</time>
      </trkpt>
      <trkpt lat="43.3751" lon="5.40999">
        <ele>297.18</ele>
        <time>2016-12-18T10:05:15Z</time>
      </trkpt>
      <trkpt lat="43.3751" lon="5.40995">
        <ele>297.18</ele>
        <time>2016-12-18T10:05:18Z</time>
      </trkpt>
      <trkpt lat="43.37509" lon="5.40982">
        <ele>297.18</ele>
        <time>2016-12-18T10:05:29Z</time>
      </trkpt>
      <trkpt lat="43.3751" lon="5.40955">
        <ele>298.15</ele>
        <time>2016-12-18T10:05:45Z</time>
      </trkpt>
      <trkpt lat="43.3751" lon="5.40935">
        <ele>298.63</ele>
        <time>2016-12-18T10:05:59Z</time>
      </trkpt>
      <trkpt lat="43.37511" lon="5.40932">
        <ele>298.63</ele>
        <time>2016-12-18T10:06:03Z</time>
      </trkpt>
      <trkpt lat="43.37511" lon="5.40924">
        <ele>298.63</ele>
        <time>2016-12-18T10:06:07Z</time>
      </trkpt>
      <trkpt lat="43.3751" lon="5.40917">
        <ele>298.63</ele>
        <time>2016-12-18T10:06:11Z</time>
      </trkpt>
      <trkpt lat="43.37511" lon="5.40913">
        <ele>298.15</ele>
        <time>2016-12-18T10:06:13Z</time>
      </trkpt>
      <trkpt lat="43.37513" lon="5.40897">
        <ele>298.15</ele>
        <time>2016-12-18T10:06:24Z</time>
      </trkpt>
      <trkpt lat="43.37516" lon="5.40877">
        <ele>297.67</ele>
        <time>2016-12-18T10:06:35Z</time>
      </trkpt>
      <trkpt lat="43.37515" lon="5.40862">
        <ele>297.18</ele>
        <time>2016-12-18T10:06:44Z</time>
      </trkpt>
      <trkpt lat="43.37515" lon="5.40854">
        <ele>296.7</ele>
        <time>2016-12-18T10:06:51Z</time>
      </trkpt>
      <trkpt lat="43.37515" lon="5.40842">
        <ele>296.22</ele>
        <time>2016-12-18T10:06:58Z</time>
      </trkpt>
      <trkpt lat="43.37516" lon="5.40839">
        <ele>296.22</ele>
        <time>2016-12-18T10:07:00Z</time>
      </trkpt>
      <trkpt lat="43.37514" lon="5.40826">
        <ele>295.74</ele>
        <time>2016-12-18T10:07:06Z</time>
      </trkpt>
      <trkpt lat="43.37515" lon="5.40816">
        <ele>295.74</ele>
        <time>2016-12-18T10:07:20Z</time>
      </trkpt>
      <trkpt lat="43.37516" lon="5.40817">
        <ele>296.22</ele>
        <time>2016-12-18T10:07:41Z</time>
      </trkpt>
      <trkpt lat="43.37516" lon="5.40818">
        <ele>297.18</ele>
        <time>2016-12-18T10:07:57Z</time>
      </trkpt>
      <trkpt lat="43.37515" lon="5.40819">
        <ele>297.18</ele>
        <time>2016-12-18T10:08:15Z</time>
      </trkpt>
      <trkpt lat="43.37515" lon="5.40819">
        <ele>297.18</ele>
        <time>2016-12-18T10:08:37Z</time>
      </trkpt>
      <trkpt lat="43.37515" lon="5.40821">
        <ele>297.67</ele>
        <time>2016-12-18T10:08:51Z</time>
      </trkpt>
      <trkpt lat="43.37515" lon="5.40821">
        <ele>298.15</ele>
        <time>2016-12-18T10:09:22Z</time>
      </trkpt>
      <trkpt lat="43.37515" lon="5.40821">
        <ele>298.63</ele>
        <time>2016-12-18T10:09:51Z</time>
      </trkpt>
      <trkpt lat="43.37518" lon="5.40798">
        <ele>298.63</ele>
        <time>2016-12-18T10:10:07Z</time>
      </trkpt>
      <trkpt lat="43.37518" lon="5.40798">
        <ele>297.67</ele>
        <time>2016-12-18T10:10:09Z</time>
      </trkpt>
      <trkpt lat="43.37519" lon="5.40796">
        <ele>298.63</ele>
        <time>2016-12-18T10:10:19Z</time>
      </trkpt>
      <trkpt lat="43.3752" lon="5.40774">
        <ele>298.15</ele>
        <time>2016-12-18T10:10:32Z</time>
      </trkpt>
      <trkpt lat="43.37521" lon="5.40768">
        <ele>297.67</ele>
        <time>2016-12-18T10:10:36Z</time>
      </trkpt>
      <trkpt lat="43.37527" lon="5.40748">
        <ele>297.67</ele>
        <time>2016-12-18T10:10:50Z</time>
      </trkpt>
      <trkpt lat="43.37534" lon="5.40726">
        <ele>297.18</ele>
        <time>2016-12-18T10:11:04Z</time>
      </trkpt>
      <trkpt lat="43.37536" lon="5.40718">
        <ele>297.18</ele>
        <time>2016-12-18T10:11:09Z</time>
      </trkpt>
      <trkpt lat="43.37537" lon="5.40714">
        <ele>297.67</ele>
        <time>2016-12-18T10:11:12Z</time>
      </trkpt>
      <trkpt lat="43.37535" lon="5.40705">
        <ele>297.18</ele>
        <time>2016-12-18T10:11:21Z</time>
      </trkpt>
      <trkpt lat="43.37527" lon="5.40687">
        <ele>296.7</ele>
        <time>2016-12-18T10:11:33Z</time>
      </trkpt>
      <trkpt lat="43.37523" lon="5.40682">
        <ele>295.74</ele>
        <time>2016-12-18T10:11:38Z</time>
      </trkpt>
      <trkpt lat="43.37518" lon="5.40671">
        <ele>294.78</ele>
        <time>2016-12-18T10:11:49Z</time>
      </trkpt>
      <trkpt lat="43.37503" lon="5.40654">
        <ele>293.82</ele>
        <time>2016-12-18T10:12:03Z</time>
      </trkpt>
      <trkpt lat="43.37502" lon="5.40653">
        <ele>293.82</ele>
        <time>2016-12-18T10:12:04Z</time>
      </trkpt>
      <trkpt lat="43.37498" lon="5.40647">
        <ele>293.34</ele>
        <time>2016-12-18T10:12:08Z</time>
      </trkpt>
      <trkpt lat="43.37494" lon="5.40643">
        <ele>293.34</ele>
        <time>2016-12-18T10:12:13Z</time>
      </trkpt>
      <trkpt lat="43.37482" lon="5.40628">
        <ele>291.42</ele>
        <time>2016-12-18T10:12:26Z</time>
      </trkpt>
      <trkpt lat="43.37471" lon="5.40614">
        <ele>290.94</ele>
        <time>2016-12-18T10:12:39Z</time>
      </trkpt>
      <trkpt lat="43.37459" lon="5.40599">
        <ele>289.49</ele>
        <time>2016-12-18T10:12:52Z</time>
      </trkpt>
      <trkpt lat="43.37452" lon="5.40589">
        <ele>289.01</ele>
        <time>2016-12-18T10:13:06Z</time>
      </trkpt>
      <trkpt lat="43.37452" lon="5.40588">
        <ele>289.49</ele>
        <time>2016-12-18T10:13:07Z</time>
      </trkpt>
      <trkpt lat="43.37449" lon="5.40581">
        <ele>289.01</ele>
        <time>2016-12-18T10:13:26Z</time>
      </trkpt>
      <trkpt lat="43.37449" lon="5.40581">
        <ele>289.01</ele>
        <time>2016-12-18T10:13:27Z</time>
      </trkpt>
      <trkpt lat="43.37446" lon="5.40578">
        <ele>289.01</ele>
        <time>2016-12-18T10:13:30Z</time>
      </trkpt>
      <trkpt lat="43.37445" lon="5.40575">
        <ele>288.53</ele>
        <time>2016-12-18T10:13:32Z</time>
      </trkpt>
      <trkpt lat="43.37435" lon="5.40558">
        <ele>287.57</ele>
        <time>2016-12-18T10:13:44Z</time>
      </trkpt>
      <trkpt lat="43.37427" lon="5.40542">
        <ele>287.09</ele>
        <time>2016-12-18T10:13:56Z</time>
      </trkpt>
      <trkpt lat="43.37422" lon="5.40529">
        <ele>286.13</ele>
        <time>2016-12-18T10:14:05Z</time>
      </trkpt>
      <trkpt lat="43.37415" lon="5.4051">
        <ele>284.69</ele>
        <time>2016-12-18T10:14:18Z</time>
      </trkpt>
      <trkpt lat="43.37412" lon="5.40504">
        <ele>284.69</ele>
        <time>2016-12-18T10:14:22Z</time>
      </trkpt>
      <trkpt lat="43.37407" lon="5.4049">
        <ele>283.73</ele>
        <time>2016-12-18T10:14:29Z</time>
      </trkpt>
      <trkpt lat="43.37403" lon="5.40477">
        <ele>283.25</ele>
        <time>2016-12-18T10:14:37Z</time>
      </trkpt>
      <trkpt lat="43.37399" lon="5.40454">
        <ele>281.8</ele>
        <time>2016-12-18T10:14:50Z</time>
      </trkpt>
      <trkpt lat="43.37397" lon="5.40447">
        <ele>281.8</ele>
        <time>2016-12-18T10:14:55Z</time>
      </trkpt>
      <trkpt lat="43.37393" lon="5.40437">
        <ele>281.32</ele>
        <time>2016-12-18T10:15:02Z</time>
      </trkpt>
      <trkpt lat="43.37387" lon="5.40415">
        <ele>281.32</ele>
        <time>2016-12-18T10:15:15Z</time>
      </trkpt>
      <trkpt lat="43.3738" lon="5.404">
        <ele>280.84</ele>
        <time>2016-12-18T10:15:25Z</time>
      </trkpt>
      <trkpt lat="43.37373" lon="5.40378">
        <ele>280.36</ele>
        <time>2016-12-18T10:15:39Z</time>
      </trkpt>
      <trkpt lat="43.37369" lon="5.40365">
        <ele>280.84</ele>
        <time>2016-12-18T10:15:47Z</time>
      </trkpt>
      <trkpt lat="43.37361" lon="5.40346">
        <ele>279.88</ele>
        <time>2016-12-18T10:15:59Z</time>
      </trkpt>
      <trkpt lat="43.37357" lon="5.4033">
        <ele>279.4</ele>
        <time>2016-12-18T10:16:09Z</time>
      </trkpt>
      <trkpt lat="43.37351" lon="5.40307">
        <ele>278.92</ele>
        <time>2016-12-18T10:16:22Z</time>
      </trkpt>
      <trkpt lat="43.37346" lon="5.40288">
        <ele>278.44</ele>
        <time>2016-12-18T10:16:34Z</time>
      </trkpt>
      <trkpt lat="43.37341" lon="5.40267">
        <ele>277</ele>
        <time>2016-12-18T10:16:46Z</time>
      </trkpt>
      <trkpt lat="43.37337" lon="5.40254">
        <ele>277</ele>
        <time>2016-12-18T10:16:55Z</time>
      </trkpt>
      <trkpt lat="43.37336" lon="5.4025">
        <ele>276.52</ele>
        <time>2016-12-18T10:16:58Z</time>
      </trkpt>
      <trkpt lat="43.37333" lon="5.40238">
        <ele>276.04</ele>
        <time>2016-12-18T10:17:05Z</time>
      </trkpt>
      <trkpt lat="43.37325" lon="5.40219">
        <ele>274.59</ele>
        <time>2016-12-18T10:17:18Z</time>
      </trkpt>
      <trkpt lat="43.37319" lon="5.40199">
        <ele>273.15</ele>
        <time>2016-12-18T10:17:31Z</time>
      </trkpt>
      <trkpt lat="43.37317" lon="5.40196">
        <ele>273.15</ele>
        <time>2016-12-18T10:17:33Z</time>
      </trkpt>
      <trkpt lat="43.37314" lon="5.40183">
        <ele>273.15</ele>
        <time>2016-12-18T10:17:41Z</time>
      </trkpt>
      <trkpt lat="43.37311" lon="5.4017">
        <ele>272.67</ele>
        <time>2016-12-18T10:17:49Z</time>
      </trkpt>
      <trkpt lat="43.37308" lon="5.40157">
        <ele>272.19</ele>
        <time>2016-12-18T10:17:57Z</time>
      </trkpt>
      <trkpt lat="43.37301" lon="5.40142">
        <ele>271.23</ele>
        <time>2016-12-18T10:18:07Z</time>
      </trkpt>
      <trkpt lat="43.37299" lon="5.40135">
        <ele>271.71</ele>
        <time>2016-12-18T10:18:11Z</time>
      </trkpt>
      <trkpt lat="43.37297" lon="5.40131">
        <ele>271.23</ele>
        <time>2016-12-18T10:18:14Z</time>
      </trkpt>
      <trkpt lat="43.3729" lon="5.40112">
        <ele>271.23</ele>
        <time>2016-12-18T10:18:26Z</time>
      </trkpt>
      <trkpt lat="43.37289" lon="5.40092">
        <ele>270.75</ele>
        <time>2016-12-18T10:18:39Z</time>
      </trkpt>
      <trkpt lat="43.37289" lon="5.40071">
        <ele>270.27</ele>
        <time>2016-12-18T10:18:51Z</time>
      </trkpt>
      <trkpt lat="43.37287" lon="5.40063">
        <ele>270.75</ele>
        <time>2016-12-18T10:18:57Z</time>
      </trkpt>
      <trkpt lat="43.37284" lon="5.40051">
        <ele>270.27</ele>
        <time>2016-12-18T10:19:04Z</time>
      </trkpt>
      <trkpt lat="43.3728" lon="5.40031">
        <ele>270.27</ele>
        <time>2016-12-18T10:19:16Z</time>
      </trkpt>
      <trkpt lat="43.37276" lon="5.40013">
        <ele>269.79</ele>
        <time>2016-12-18T10:19:28Z</time>
      </trkpt>
      <trkpt lat="43.37273" lon="5.39996">
        <ele>269.79</ele>
        <time>2016-12-18T10:19:38Z</time>
      </trkpt>
      <trkpt lat="43.37274" lon="5.39978">
        <ele>269.79</ele>
        <time>2016-12-18T10:19:50Z</time>
      </trkpt>
      <trkpt lat="43.37275" lon="5.39977">
        <ele>269.79</ele>
        <time>2016-12-18T10:19:51Z</time>
      </trkpt>
      <trkpt lat="43.37277" lon="5.39958">
        <ele>269.31</ele>
        <time>2016-12-18T10:20:03Z</time>
      </trkpt>
      <trkpt lat="43.37277" lon="5.39951">
        <ele>269.31</ele>
        <time>2016-12-18T10:20:07Z</time>
      </trkpt>
      <trkpt lat="43.37268" lon="5.39932">
        <ele>269.31</ele>
        <time>2016-12-18T10:20:20Z</time>
      </trkpt>
      <trkpt lat="43.37267" lon="5.3993">
        <ele>268.83</ele>
        <time>2016-12-18T10:20:21Z</time>
      </trkpt>
      <trkpt lat="43.37259" lon="5.39913">
        <ele>268.35</ele>
        <time>2016-12-18T10:20:34Z</time>
      </trkpt>
      <trkpt lat="43.37257" lon="5.39893">
        <ele>267.86</ele>
        <time>2016-12-18T10:20:46Z</time>
      </trkpt>
      <trkpt lat="43.37256" lon="5.39892">
        <ele>267.86</ele>
        <time>2016-12-18T10:21:04Z</time>
      </trkpt>
      <trkpt lat="43.37257" lon="5.39892">
        <ele>267.86</ele>
        <time>2016-12-18T10:21:32Z</time>
      </trkpt>
      <trkpt lat="43.37256" lon="5.39892">
        <ele>267.86</ele>
        <time>2016-12-18T10:21:42Z</time>
      </trkpt>
      <trkpt lat="43.37257" lon="5.39887">
        <ele>267.86</ele>
        <time>2016-12-18T10:21:46Z</time>
      </trkpt>
      <trkpt lat="43.37258" lon="5.39882">
        <ele>268.35</ele>
        <time>2016-12-18T10:21:49Z</time>
      </trkpt>
      <trkpt lat="43.37257" lon="5.39872">
        <ele>267.86</ele>
        <time>2016-12-18T10:21:55Z</time>
      </trkpt>
      <trkpt lat="43.37255" lon="5.39844">
        <ele>268.35</ele>
        <time>2016-12-18T10:22:09Z</time>
      </trkpt>
      <trkpt lat="43.37257" lon="5.39821">
        <ele>267.38</ele>
        <time>2016-12-18T10:22:21Z</time>
      </trkpt>
      <trkpt lat="43.37257" lon="5.39818">
        <ele>267.86</ele>
        <time>2016-12-18T10:22:23Z</time>
      </trkpt>
      <trkpt lat="43.37253" lon="5.39798">
        <ele>267.86</ele>
        <time>2016-12-18T10:22:35Z</time>
      </trkpt>
      <trkpt lat="43.37249" lon="5.39788">
        <ele>267.38</ele>
        <time>2016-12-18T10:22:42Z</time>
      </trkpt>
      <trkpt lat="43.37239" lon="5.39774">
        <ele>265.94</ele>
        <time>2016-12-18T10:22:54Z</time>
      </trkpt>
      <trkpt lat="43.37234" lon="5.39776">
        <ele>265.94</ele>
        <time>2016-12-18T10:22:59Z</time>
      </trkpt>
      <trkpt lat="43.37232" lon="5.39776">
        <ele>265.94</ele>
        <time>2016-12-18T10:23:01Z</time>
      </trkpt>
      <trkpt lat="43.3723" lon="5.39779">
        <ele>265.94</ele>
        <time>2016-12-18T10:23:04Z</time>
      </trkpt>
      <trkpt lat="43.3723" lon="5.39786">
        <ele>265.94</ele>
        <time>2016-12-18T10:23:09Z</time>
      </trkpt>
      <trkpt lat="43.37237" lon="5.39791">
        <ele>266.9</ele>
        <time>2016-12-18T10:23:16Z</time>
      </trkpt>
      <trkpt lat="43.3724" lon="5.39792">
        <ele>267.38</ele>
        <time>2016-12-18T10:23:18Z</time>
      </trkpt>
      <trkpt lat="43.3725" lon="5.39797">
        <ele>267.86</ele>
        <time>2016-12-18T10:23:28Z</time>
      </trkpt>
      <trkpt lat="43.37256" lon="5.3982">
        <ele>268.35</ele>
        <time>2016-12-18T10:23:43Z</time>
      </trkpt>
      <trkpt lat="43.37256" lon="5.39842">
        <ele>268.83</ele>
        <time>2016-12-18T10:23:55Z</time>
      </trkpt>
      <trkpt lat="43.37256" lon="5.39866">
        <ele>268.83</ele>
        <time>2016-12-18T10:24:08Z</time>
      </trkpt>
      <trkpt lat="43.37255" lon="5.39886">
        <ele>269.79</ele>
        <time>2016-12-18T10:24:20Z</time>
      </trkpt>
      <trkpt lat="43.37243" lon="5.39904">
        <ele>269.31</ele>
        <time>2016-12-18T10:24:32Z</time>
      </trkpt>
      <trkpt lat="43.37242" lon="5.39906">
        <ele>270.27</ele>
        <time>2016-12-18T10:24:34Z</time>
      </trkpt>
      <trkpt lat="43.3724" lon="5.3991">
        <ele>269.79</ele>
        <time>2016-12-18T10:24:37Z</time>
      </trkpt>
      <trkpt lat="43.37227" lon="5.39922">
        <ele>269.31</ele>
        <time>2016-12-18T10:24:49Z</time>
      </trkpt>
      <trkpt lat="43.37223" lon="5.39923">
        <ele>269.31</ele>
        <time>2016-12-18T10:24:53Z</time>
      </trkpt>
      <trkpt lat="43.3721" lon="5.39937">
        <ele>268.35</ele>
        <time>2016-12-18T10:25:06Z</time>
      </trkpt>
      <trkpt lat="43.37207" lon="5.39953">
        <ele>268.83</ele>
        <time>2016-12-18T10:25:16Z</time>
      </trkpt>
      <trkpt lat="43.37205" lon="5.39975">
        <ele>269.31</ele>
        <time>2016-12-18T10:25:28Z</time>
      </trkpt>
      <trkpt lat="43.37207" lon="5.39995">
        <ele>269.79</ele>
        <time>2016-12-18T10:25:39Z</time>
      </trkpt>
      <trkpt lat="43.37208" lon="5.40005">
        <ele>270.27</ele>
        <time>2016-12-18T10:25:49Z</time>
      </trkpt>
      <trkpt lat="43.37209" lon="5.40017">
        <ele>269.79</ele>
        <time>2016-12-18T10:25:56Z</time>
      </trkpt>
      <trkpt lat="43.3721" lon="5.40022">
        <ele>270.27</ele>
        <time>2016-12-18T10:25:59Z</time>
      </trkpt>
      <trkpt lat="43.37211" lon="5.4003">
        <ele>270.75</ele>
        <time>2016-12-18T10:26:04Z</time>
      </trkpt>
      <trkpt lat="43.37212" lon="5.40033">
        <ele>270.27</ele>
        <time>2016-12-18T10:26:06Z</time>
      </trkpt>
      <trkpt lat="43.37212" lon="5.40048">
        <ele>270.75</ele>
        <time>2016-12-18T10:26:16Z</time>
      </trkpt>
      <trkpt lat="43.37212" lon="5.40051">
        <ele>269.79</ele>
        <time>2016-12-18T10:26:18Z</time>
      </trkpt>
      <trkpt lat="43.37212" lon="5.40058">
        <ele>270.27</ele>
        <time>2016-12-18T10:26:22Z</time>
      </trkpt>
      <trkpt lat="43.37213" lon="5.40072">
        <ele>269.79</ele>
        <time>2016-12-18T10:26:35Z</time>
      </trkpt>
      <trkpt lat="43.37213" lon="5.40072">
        <ele>269.79</ele>
        <time>2016-12-18T10:26:46Z</time>
      </trkpt>
      <trkpt lat="43.37213" lon="5.40077">
        <ele>270.27</ele>
        <time>2016-12-18T10:26:49Z</time>
      </trkpt>
      <trkpt lat="43.37214" lon="5.40088">
        <ele>270.27</ele>
        <time>2016-12-18T10:26:56Z</time>
      </trkpt>
      <trkpt lat="43.37214" lon="5.40098">
        <ele>269.79</ele>
        <time>2016-12-18T10:27:07Z</time>
      </trkpt>
      <trkpt lat="43.37214" lon="5.40098">
        <ele>269.31</ele>
        <time>2016-12-18T10:27:10Z</time>
      </trkpt>
      <trkpt lat="43.37215" lon="5.40102">
        <ele>269.79</ele>
        <time>2016-12-18T10:27:18Z</time>
      </trkpt>
      <trkpt lat="43.3722" lon="5.40122">
        <ele>271.71</ele>
        <time>2016-12-18T10:27:30Z</time>
      </trkpt>
      <trkpt lat="43.37224" lon="5.40145">
        <ele>273.15</ele>
        <time>2016-12-18T10:27:44Z</time>
      </trkpt>
      <trkpt lat="43.37224" lon="5.40167">
        <ele>274.59</ele>
        <time>2016-12-18T10:27:56Z</time>
      </trkpt>
      <trkpt lat="43.37224" lon="5.4019">
        <ele>276.04</ele>
        <time>2016-12-18T10:28:08Z</time>
      </trkpt>
      <trkpt lat="43.37224" lon="5.40192">
        <ele>276.04</ele>
        <time>2016-12-18T10:28:09Z</time>
      </trkpt>
      <trkpt lat="43.37224" lon="5.40217">
        <ele>277</ele>
        <time>2016-12-18T10:28:22Z</time>
      </trkpt>
      <trkpt lat="43.37226" lon="5.40242">
        <ele>277.96</ele>
        <time>2016-12-18T10:28:36Z</time>
      </trkpt>
      <trkpt lat="43.37226" lon="5.40263">
        <ele>278.44</ele>
        <time>2016-12-18T10:28:47Z</time>
      </trkpt>
      <trkpt lat="43.37226" lon="5.40288">
        <ele>279.4</ele>
        <time>2016-12-18T10:28:58Z</time>
      </trkpt>
      <trkpt lat="43.37227" lon="5.40299">
        <ele>279.4</ele>
        <time>2016-12-18T10:29:04Z</time>
      </trkpt>
      <trkpt lat="43.37231" lon="5.40324">
        <ele>279.88</ele>
        <time>2016-12-18T10:29:18Z</time>
      </trkpt>
      <trkpt lat="43.37235" lon="5.40347">
        <ele>280.84</ele>
        <time>2016-12-18T10:29:32Z</time>
      </trkpt>
      <trkpt lat="43.37237" lon="5.40361">
        <ele>281.32</ele>
        <time>2016-12-18T10:29:41Z</time>
      </trkpt>
      <trkpt lat="43.37237" lon="5.40364">
        <ele>281.32</ele>
        <time>2016-12-18T10:29:43Z</time>
      </trkpt>
      <trkpt lat="43.37238" lon="5.4037">
        <ele>282.28</ele>
        <time>2016-12-18T10:29:47Z</time>
      </trkpt>
      <trkpt lat="43.37247" lon="5.40394">
        <ele>282.28</ele>
        <time>2016-12-18T10:30:02Z</time>
      </trkpt>
      <trkpt lat="43.37251" lon="5.40417">
        <ele>283.25</ele>
        <time>2016-12-18T10:30:15Z</time>
      </trkpt>
      <trkpt lat="43.37255" lon="5.40435">
        <ele>284.21</ele>
        <time>2016-12-18T10:30:28Z</time>
      </trkpt>
      <trkpt lat="43.3726" lon="5.40458">
        <ele>284.69</ele>
        <time>2016-12-18T10:30:42Z</time>
      </trkpt>
      <trkpt lat="43.37263" lon="5.40483">
        <ele>285.17</ele>
        <time>2016-12-18T10:30:55Z</time>
      </trkpt>
      <trkpt lat="43.37258" lon="5.40497">
        <ele>284.21</ele>
        <time>2016-12-18T10:31:04Z</time>
      </trkpt>
      <trkpt lat="43.37249" lon="5.40508">
        <ele>283.25</ele>
        <time>2016-12-18T10:31:14Z</time>
      </trkpt>
      <trkpt lat="43.37242" lon="5.40511">
        <ele>282.28</ele>
        <time>2016-12-18T10:31:24Z</time>
      </trkpt>
      <trkpt lat="43.37233" lon="5.40526">
        <ele>283.73</ele>
        <time>2016-12-18T10:31:35Z</time>
      </trkpt>
      <trkpt lat="43.37223" lon="5.40537">
        <ele>284.69</ele>
        <time>2016-12-18T10:31:46Z</time>
      </trkpt>
      <trkpt lat="43.3721" lon="5.40546">
        <ele>285.17</ele>
        <time>2016-12-18T10:31:58Z</time>
      </trkpt>
      <trkpt lat="43.37206" lon="5.40549">
        <ele>284.69</ele>
        <time>2016-12-18T10:32:02Z</time>
      </trkpt>
      <trkpt lat="43.37202" lon="5.40546">
        <ele>284.69</ele>
        <time>2016-12-18T10:32:05Z</time>
      </trkpt>
      <trkpt lat="43.37196" lon="5.40541">
        <ele>284.69</ele>
        <time>2016-12-18T10:32:10Z</time>
      </trkpt>
      <trkpt lat="43.37184" lon="5.40528">
        <ele>284.21</ele>
        <time>2016-12-18T10:32:22Z</time>
      </trkpt>
      <trkpt lat="43.37179" lon="5.40523">
        <ele>283.73</ele>
        <time>2016-12-18T10:32:28Z</time>
      </trkpt>
      <trkpt lat="43.37174" lon="5.40521">
        <ele>283.73</ele>
        <time>2016-12-18T10:32:33Z</time>
      </trkpt>
      <trkpt lat="43.37161" lon="5.4051">
        <ele>283.73</ele>
        <time>2016-12-18T10:32:46Z</time>
      </trkpt>
      <trkpt lat="43.37156" lon="5.40503">
        <ele>283.25</ele>
        <time>2016-12-18T10:32:51Z</time>
      </trkpt>
      <trkpt lat="43.37154" lon="5.40491">
        <ele>283.25</ele>
        <time>2016-12-18T10:32:57Z</time>
      </trkpt>
      <trkpt lat="43.37155" lon="5.40472">
        <ele>282.77</ele>
        <time>2016-12-18T10:33:08Z</time>
      </trkpt>
      <trkpt lat="43.37152" lon="5.40464">
        <ele>282.28</ele>
        <time>2016-12-18T10:33:13Z</time>
      </trkpt>
      <trkpt lat="43.37151" lon="5.40457">
        <ele>281.32</ele>
        <time>2016-12-18T10:33:17Z</time>
      </trkpt>
      <trkpt lat="43.37136" lon="5.40442">
        <ele>282.77</ele>
        <time>2016-12-18T10:33:31Z</time>
      </trkpt>
      <trkpt lat="43.37134" lon="5.40438">
        <ele>282.77</ele>
        <time>2016-12-18T10:33:34Z</time>
      </trkpt>
      <trkpt lat="43.37126" lon="5.40423">
        <ele>283.25</ele>
        <time>2016-12-18T10:33:45Z</time>
      </trkpt>
      <trkpt lat="43.37114" lon="5.40407">
        <ele>283.25</ele>
        <time>2016-12-18T10:33:58Z</time>
      </trkpt>
      <trkpt lat="43.37103" lon="5.40395">
        <ele>282.77</ele>
        <time>2016-12-18T10:34:10Z</time>
      </trkpt>
      <trkpt lat="43.37092" lon="5.40381">
        <ele>282.77</ele>
        <time>2016-12-18T10:34:22Z</time>
      </trkpt>
      <trkpt lat="43.37079" lon="5.40369">
        <ele>283.25</ele>
        <time>2016-12-18T10:34:35Z</time>
      </trkpt>
      <trkpt lat="43.37065" lon="5.40358">
        <ele>282.77</ele>
        <time>2016-12-18T10:34:48Z</time>
      </trkpt>
      <trkpt lat="43.37058" lon="5.40353">
        <ele>282.28</ele>
        <time>2016-12-18T10:34:55Z</time>
      </trkpt>
      <trkpt lat="43.37052" lon="5.40348">
        <ele>282.28</ele>
        <time>2016-12-18T10:35:00Z</time>
      </trkpt>
      <trkpt lat="43.37043" lon="5.40335">
        <ele>281.8</ele>
        <time>2016-12-18T10:35:11Z</time>
      </trkpt>
      <trkpt lat="43.3704" lon="5.4033">
        <ele>281.32</ele>
        <time>2016-12-18T10:35:23Z</time>
      </trkpt>
      <trkpt lat="43.37032" lon="5.40325">
        <ele>281.32</ele>
        <time>2016-12-18T10:35:31Z</time>
      </trkpt>
      <trkpt lat="43.37017" lon="5.40309">
        <ele>280.36</ele>
        <time>2016-12-18T10:35:46Z</time>
      </trkpt>
      <trkpt lat="43.37017" lon="5.40308">
        <ele>280.36</ele>
        <time>2016-12-18T10:35:47Z</time>
      </trkpt>
      <trkpt lat="43.37006" lon="5.40292">
        <ele>280.36</ele>
        <time>2016-12-18T10:36:00Z</time>
      </trkpt>
      <trkpt lat="43.37003" lon="5.40288">
        <ele>279.88</ele>
        <time>2016-12-18T10:36:03Z</time>
      </trkpt>
      <trkpt lat="43.37001" lon="5.40284">
        <ele>280.84</ele>
        <time>2016-12-18T10:36:06Z</time>
      </trkpt>
      <trkpt lat="43.36997" lon="5.40278">
        <ele>279.88</ele>
        <time>2016-12-18T10:36:11Z</time>
      </trkpt>
      <trkpt lat="43.36989" lon="5.40257">
        <ele>279.4</ele>
        <time>2016-12-18T10:36:24Z</time>
      </trkpt>
      <trkpt lat="43.36989" lon="5.40254">
        <ele>279.4</ele>
        <time>2016-12-18T10:36:31Z</time>
      </trkpt>
      <trkpt lat="43.36983" lon="5.40244">
        <ele>278.92</ele>
        <time>2016-12-18T10:36:39Z</time>
      </trkpt>
      <trkpt lat="43.36984" lon="5.40224">
        <ele>279.4</ele>
        <time>2016-12-18T10:36:51Z</time>
      </trkpt>
      <trkpt lat="43.36984" lon="5.40204">
        <ele>278.92</ele>
        <time>2016-12-18T10:37:03Z</time>
      </trkpt>
      <trkpt lat="43.36981" lon="5.40197">
        <ele>278.44</ele>
        <time>2016-12-18T10:37:08Z</time>
      </trkpt>
      <trkpt lat="43.3698" lon="5.40175">
        <ele>277.96</ele>
        <time>2016-12-18T10:37:21Z</time>
      </trkpt>
      <trkpt lat="43.36979" lon="5.40164">
        <ele>278.44</ele>
        <time>2016-12-18T10:37:28Z</time>
      </trkpt>
      <trkpt lat="43.36981" lon="5.4016">
        <ele>277.96</ele>
        <time>2016-12-18T10:37:32Z</time>
      </trkpt>
      <trkpt lat="43.36985" lon="5.40161">
        <ele>278.44</ele>
        <time>2016-12-18T10:37:38Z</time>
      </trkpt>
      <trkpt lat="43.36976" lon="5.40154">
        <ele>277.96</ele>
        <time>2016-12-18T10:37:47Z</time>
      </trkpt>
      <trkpt lat="43.36971" lon="5.40142">
        <ele>277.96</ele>
        <time>2016-12-18T10:37:54Z</time>
      </trkpt>
      <trkpt lat="43.36962" lon="5.40125">
        <ele>277.96</ele>
        <time>2016-12-18T10:38:07Z</time>
      </trkpt>
      <trkpt lat="43.36963" lon="5.40126">
        <ele>277.96</ele>
        <time>2016-12-18T10:38:25Z</time>
      </trkpt>
      <trkpt lat="43.36963" lon="5.40126">
        <ele>277</ele>
        <time>2016-12-18T10:38:30Z</time>
      </trkpt>
      <trkpt lat="43.36959" lon="5.40118">
        <ele>278.44</ele>
        <time>2016-12-18T10:38:40Z</time>
      </trkpt>
      <trkpt lat="43.36943" lon="5.40107">
        <ele>277.96</ele>
        <time>2016-12-18T10:38:54Z</time>
      </trkpt>
      <trkpt lat="43.36924" lon="5.40101">
        <ele>277.96</ele>
        <time>2016-12-18T10:39:08Z</time>
      </trkpt>
      <trkpt lat="43.36906" lon="5.40093">
        <ele>277.48</ele>
        <time>2016-12-18T10:39:21Z</time>
      </trkpt>
      <trkpt lat="43.369" lon="5.40092">
        <ele>277.96</ele>
        <time>2016-12-18T10:39:26Z</time>
      </trkpt>
      <trkpt lat="43.36886" lon="5.40087">
        <ele>277</ele>
        <time>2016-12-18T10:39:37Z</time>
      </trkpt>
      <trkpt lat="43.36883" lon="5.40085">
        <ele>276.52</ele>
        <time>2016-12-18T10:39:40Z</time>
      </trkpt>
      <trkpt lat="43.36871" lon="5.40078">
        <ele>273.15</ele>
        <time>2016-12-18T10:39:51Z</time>
      </trkpt>
      <trkpt lat="43.36863" lon="5.40072">
        <ele>273.63</ele>
        <time>2016-12-18T10:39:59Z</time>
      </trkpt>
      <trkpt lat="43.36859" lon="5.40067">
        <ele>273.63</ele>
        <time>2016-12-18T10:40:04Z</time>
      </trkpt>
      <trkpt lat="43.36857" lon="5.40061">
        <ele>273.63</ele>
        <time>2016-12-18T10:40:08Z</time>
      </trkpt>
      <trkpt lat="43.36856" lon="5.40057">
        <ele>273.63</ele>
        <time>2016-12-18T10:40:11Z</time>
      </trkpt>
      <trkpt lat="43.36855" lon="5.40052">
        <ele>273.63</ele>
        <time>2016-12-18T10:40:14Z</time>
      </trkpt>
      <trkpt lat="43.36842" lon="5.40039">
        <ele>274.11</ele>
        <time>2016-12-18T10:40:26Z</time>
      </trkpt>
      <trkpt lat="43.36841" lon="5.40039">
        <ele>274.11</ele>
        <time>2016-12-18T10:40:27Z</time>
      </trkpt>
      <trkpt lat="43.36838" lon="5.40037">
        <ele>274.11</ele>
        <time>2016-12-18T10:40:30Z</time>
      </trkpt>
      <trkpt lat="43.36835" lon="5.40033">
        <ele>274.59</ele>
        <time>2016-12-18T10:40:34Z</time>
      </trkpt>
      <trkpt lat="43.36831" lon="5.40023">
        <ele>274.59</ele>
        <time>2016-12-18T10:40:41Z</time>
      </trkpt>
      <trkpt lat="43.36825" lon="5.40003">
        <ele>275.56</ele>
        <time>2016-12-18T10:40:54Z</time>
      </trkpt>
      <trkpt lat="43.36818" lon="5.39982">
        <ele>276.52</ele>
        <time>2016-12-18T10:41:07Z</time>
      </trkpt>
      <trkpt lat="43.36818" lon="5.39981">
        <ele>276.52</ele>
        <time>2016-12-18T10:41:08Z</time>
      </trkpt>
      <trkpt lat="43.36814" lon="5.39963">
        <ele>276.52</ele>
        <time>2016-12-18T10:41:19Z</time>
      </trkpt>
      <trkpt lat="43.36806" lon="5.39945">
        <ele>277</ele>
        <time>2016-12-18T10:41:31Z</time>
      </trkpt>
      <trkpt lat="43.36801" lon="5.39926">
        <ele>277</ele>
        <time>2016-12-18T10:41:42Z</time>
      </trkpt>
      <trkpt lat="43.36795" lon="5.39909">
        <ele>277</ele>
        <time>2016-12-18T10:41:53Z</time>
      </trkpt>
      <trkpt lat="43.36795" lon="5.39908">
        <ele>277</ele>
        <time>2016-12-18T10:41:54Z</time>
      </trkpt>
      <trkpt lat="43.3679" lon="5.39887">
        <ele>277.48</ele>
        <time>2016-12-18T10:42:07Z</time>
      </trkpt>
      <trkpt lat="43.36785" lon="5.39872">
        <ele>274.59</ele>
        <time>2016-12-18T10:42:20Z</time>
      </trkpt>
      <trkpt lat="43.36784" lon="5.39867">
        <ele>273.15</ele>
        <time>2016-12-18T10:42:24Z</time>
      </trkpt>
      <trkpt lat="43.36783" lon="5.39852">
        <ele>271.23</ele>
        <time>2016-12-18T10:42:34Z</time>
      </trkpt>
      <trkpt lat="43.3678" lon="5.39833">
        <ele>269.79</ele>
        <time>2016-12-18T10:42:46Z</time>
      </trkpt>
      <trkpt lat="43.36778" lon="5.39821">
        <ele>268.83</ele>
        <time>2016-12-18T10:42:54Z</time>
      </trkpt>
      <trkpt lat="43.36777" lon="5.39814">
        <ele>268.83</ele>
        <time>2016-12-18T10:42:58Z</time>
      </trkpt>
      <trkpt lat="43.36778" lon="5.39797">
        <ele>268.35</ele>
        <time>2016-12-18T10:43:09Z</time>
      </trkpt>
      <trkpt lat="43.3678" lon="5.3979">
        <ele>267.38</ele>
        <time>2016-12-18T10:43:13Z</time>
      </trkpt>
      <trkpt lat="43.36781" lon="5.39775">
        <ele>267.38</ele>
        <time>2016-12-18T10:43:23Z</time>
      </trkpt>
      <trkpt lat="43.36781" lon="5.3977">
        <ele>267.38</ele>
        <time>2016-12-18T10:43:39Z</time>
      </trkpt>
      <trkpt lat="43.36781" lon="5.39767">
        <ele>267.38</ele>
        <time>2016-12-18T10:43:59Z</time>
      </trkpt>
      <trkpt lat="43.36786" lon="5.39743">
        <ele>267.38</ele>
        <time>2016-12-18T10:44:13Z</time>
      </trkpt>
      <trkpt lat="43.36791" lon="5.39721">
        <ele>267.38</ele>
        <time>2016-12-18T10:44:25Z</time>
      </trkpt>
      <trkpt lat="43.36792" lon="5.39696">
        <ele>268.35</ele>
        <time>2016-12-18T10:44:40Z</time>
      </trkpt>
      <trkpt lat="43.36793" lon="5.39684">
        <ele>268.83</ele>
        <time>2016-12-18T10:44:49Z</time>
      </trkpt>
      <trkpt lat="43.36794" lon="5.39673">
        <ele>269.79</ele>
        <time>2016-12-18T10:44:55Z</time>
      </trkpt>
      <trkpt lat="43.36794" lon="5.39671">
        <ele>269.79</ele>
        <time>2016-12-18T10:44:57Z</time>
      </trkpt>
      <trkpt lat="43.36792" lon="5.3965">
        <ele>270.75</ele>
        <time>2016-12-18T10:45:10Z</time>
      </trkpt>
      <trkpt lat="43.36793" lon="5.39632">
        <ele>271.23</ele>
        <time>2016-12-18T10:45:22Z</time>
      </trkpt>
      <trkpt lat="43.36794" lon="5.39609">
        <ele>273.15</ele>
        <time>2016-12-18T10:45:35Z</time>
      </trkpt>
      <trkpt lat="43.36794" lon="5.39594">
        <ele>274.59</ele>
        <time>2016-12-18T10:45:46Z</time>
      </trkpt>
      <trkpt lat="43.36799" lon="5.39593">
        <ele>275.07</ele>
        <time>2016-12-18T10:45:54Z</time>
      </trkpt>
      <trkpt lat="43.36803" lon="5.39598">
        <ele>275.56</ele>
        <time>2016-12-18T10:46:00Z</time>
      </trkpt>
      <trkpt lat="43.36807" lon="5.39598">
        <ele>275.56</ele>
        <time>2016-12-18T10:46:06Z</time>
      </trkpt>
      <trkpt lat="43.36808" lon="5.39593">
        <ele>277</ele>
        <time>2016-12-18T10:46:10Z</time>
      </trkpt>
      <trkpt lat="43.36805" lon="5.39577">
        <ele>277.48</ele>
        <time>2016-12-18T10:46:21Z</time>
      </trkpt>
      <trkpt lat="43.36805" lon="5.39572">
        <ele>277</ele>
        <time>2016-12-18T10:46:25Z</time>
      </trkpt>
      <trkpt lat="43.36801" lon="5.39569">
        <ele>278.44</ele>
        <time>2016-12-18T10:46:29Z</time>
      </trkpt>
      <trkpt lat="43.36795" lon="5.39567">
        <ele>278.44</ele>
        <time>2016-12-18T10:46:46Z</time>
      </trkpt>
      <trkpt lat="43.36792" lon="5.39566">
        <ele>278.44</ele>
        <time>2016-12-18T10:46:56Z</time>
      </trkpt>
      <trkpt lat="43.36793" lon="5.39555">
        <ele>280.36</ele>
        <time>2016-12-18T10:47:11Z</time>
      </trkpt>
      <trkpt lat="43.36799" lon="5.39555">
        <ele>279.88</ele>
        <time>2016-12-18T10:47:20Z</time>
      </trkpt>
      <trkpt lat="43.36805" lon="5.39552">
        <ele>280.36</ele>
        <time>2016-12-18T10:47:26Z</time>
      </trkpt>
      <trkpt lat="43.36809" lon="5.39551">
        <ele>280.36</ele>
        <time>2016-12-18T10:47:30Z</time>
      </trkpt>
      <trkpt lat="43.36824" lon="5.39544">
        <ele>280.84</ele>
        <time>2016-12-18T10:47:44Z</time>
      </trkpt>
      <trkpt lat="43.36825" lon="5.39544">
        <ele>281.8</ele>
        <time>2016-12-18T10:47:45Z</time>
      </trkpt>
      <trkpt lat="43.36841" lon="5.39534">
        <ele>282.77</ele>
        <time>2016-12-18T10:48:00Z</time>
      </trkpt>
      <trkpt lat="43.36859" lon="5.39521">
        <ele>284.21</ele>
        <time>2016-12-18T10:48:17Z</time>
      </trkpt>
      <trkpt lat="43.36868" lon="5.39514">
        <ele>284.69</ele>
        <time>2016-12-18T10:48:26Z</time>
      </trkpt>
      <trkpt lat="43.36884" lon="5.39501">
        <ele>285.65</ele>
        <time>2016-12-18T10:48:42Z</time>
      </trkpt>
      <trkpt lat="43.36899" lon="5.39491">
        <ele>285.65</ele>
        <time>2016-12-18T10:48:56Z</time>
      </trkpt>
      <trkpt lat="43.36914" lon="5.3948">
        <ele>285.65</ele>
        <time>2016-12-18T10:49:10Z</time>
      </trkpt>
      <trkpt lat="43.36924" lon="5.39474">
        <ele>285.65</ele>
        <time>2016-12-18T10:49:21Z</time>
      </trkpt>
      <trkpt lat="43.36927" lon="5.39476">
        <ele>285.65</ele>
        <time>2016-12-18T10:49:40Z</time>
      </trkpt>
      <trkpt lat="43.36937" lon="5.39478">
        <ele>285.17</ele>
        <time>2016-12-18T10:49:53Z</time>
      </trkpt>
      <trkpt lat="43.36938" lon="5.39477">
        <ele>285.17</ele>
        <time>2016-12-18T10:49:55Z</time>
      </trkpt>
      <trkpt lat="43.36945" lon="5.39472">
        <ele>284.21</ele>
        <time>2016-12-18T10:50:03Z</time>
      </trkpt>
      <trkpt lat="43.36949" lon="5.39471">
        <ele>284.21</ele>
        <time>2016-12-18T10:50:06Z</time>
      </trkpt>
      <trkpt lat="43.36955" lon="5.39471">
        <ele>283.73</ele>
        <time>2016-12-18T10:50:13Z</time>
      </trkpt>
      <trkpt lat="43.36959" lon="5.39469">
        <ele>282.77</ele>
        <time>2016-12-18T10:50:16Z</time>
      </trkpt>
      <trkpt lat="43.36969" lon="5.39466">
        <ele>281.8</ele>
        <time>2016-12-18T10:50:26Z</time>
      </trkpt>
      <trkpt lat="43.36971" lon="5.39466">
        <ele>281.8</ele>
        <time>2016-12-18T10:50:28Z</time>
      </trkpt>
      <trkpt lat="43.3698" lon="5.39464">
        <ele>281.32</ele>
        <time>2016-12-18T10:50:36Z</time>
      </trkpt>
      <trkpt lat="43.36987" lon="5.39455">
        <ele>280.84</ele>
        <time>2016-12-18T10:50:52Z</time>
      </trkpt>
      <trkpt lat="43.36987" lon="5.39451">
        <ele>281.32</ele>
        <time>2016-12-18T10:51:01Z</time>
      </trkpt>
      <trkpt lat="43.36985" lon="5.39441">
        <ele>282.28</ele>
        <time>2016-12-18T10:51:07Z</time>
      </trkpt>
      <trkpt lat="43.36988" lon="5.3942">
        <ele>283.25</ele>
        <time>2016-12-18T10:51:21Z</time>
      </trkpt>
      <trkpt lat="43.36989" lon="5.39417">
        <ele>284.21</ele>
        <time>2016-12-18T10:51:23Z</time>
      </trkpt>
      <trkpt lat="43.36991" lon="5.39392">
        <ele>286.13</ele>
        <time>2016-12-18T10:51:39Z</time>
      </trkpt>
      <trkpt lat="43.36988" lon="5.3937">
        <ele>289.01</ele>
        <time>2016-12-18T10:51:53Z</time>
      </trkpt>
      <trkpt lat="43.36986" lon="5.39364">
        <ele>289.49</ele>
        <time>2016-12-18T10:51:57Z</time>
      </trkpt>
      <trkpt lat="43.36986" lon="5.39361">
        <ele>289.97</ele>
        <time>2016-12-18T10:52:00Z</time>
      </trkpt>
      <trkpt lat="43.36985" lon="5.39355">
        <ele>289.97</ele>
        <time>2016-12-18T10:52:05Z</time>
      </trkpt>
      <trkpt lat="43.36984" lon="5.3935">
        <ele>290.94</ele>
        <time>2016-12-18T10:52:09Z</time>
      </trkpt>
      <trkpt lat="43.36979" lon="5.3934">
        <ele>291.9</ele>
        <time>2016-12-18T10:52:17Z</time>
      </trkpt>
      <trkpt lat="43.36969" lon="5.39328">
        <ele>292.86</ele>
        <time>2016-12-18T10:52:29Z</time>
      </trkpt>
      <trkpt lat="43.36966" lon="5.39326">
        <ele>293.82</ele>
        <time>2016-12-18T10:52:35Z</time>
      </trkpt>
      <trkpt lat="43.36962" lon="5.39322">
        <ele>295.26</ele>
        <time>2016-12-18T10:52:40Z</time>
      </trkpt>
      <trkpt lat="43.36955" lon="5.39317">
        <ele>295.74</ele>
        <time>2016-12-18T10:52:48Z</time>
      </trkpt>
      <trkpt lat="43.36951" lon="5.39312">
        <ele>296.22</ele>
        <time>2016-12-18T10:52:52Z</time>
      </trkpt>
      <trkpt lat="43.36949" lon="5.39308">
        <ele>296.22</ele>
        <time>2016-12-18T10:52:56Z</time>
      </trkpt>
      <trkpt lat="43.36945" lon="5.39296">
        <ele>297.18</ele>
        <time>2016-12-18T10:53:04Z</time>
      </trkpt>
      <trkpt lat="43.3694" lon="5.39279">
        <ele>298.15</ele>
        <time>2016-12-18T10:53:16Z</time>
      </trkpt>
      <trkpt lat="43.36936" lon="5.39273">
        <ele>298.15</ele>
        <time>2016-12-18T10:53:22Z</time>
      </trkpt>
      <trkpt lat="43.36934" lon="5.3927">
        <ele>298.15</ele>
        <time>2016-12-18T10:53:25Z</time>
      </trkpt>
      <trkpt lat="43.36928" lon="5.39264">
        <ele>298.15</ele>
        <time>2016-12-18T10:53:31Z</time>
      </trkpt>
      <trkpt lat="43.36925" lon="5.39262">
        <ele>297.67</ele>
        <time>2016-12-18T10:53:34Z</time>
      </trkpt>
      <trkpt lat="43.36918" lon="5.39258">
        <ele>297.67</ele>
        <time>2016-12-18T10:53:46Z</time>
      </trkpt>
      <trkpt lat="43.3691" lon="5.39255">
        <ele>297.67</ele>
        <time>2016-12-18T10:53:54Z</time>
      </trkpt>
      <trkpt lat="43.36896" lon="5.39248">
        <ele>297.18</ele>
        <time>2016-12-18T10:54:06Z</time>
      </trkpt>
      <trkpt lat="43.36896" lon="5.39248">
        <ele>297.18</ele>
        <time>2016-12-18T10:54:10Z</time>
      </trkpt>
      <trkpt lat="43.36892" lon="5.39248">
        <ele>297.18</ele>
        <time>2016-12-18T10:54:13Z</time>
      </trkpt>
      <trkpt lat="43.36886" lon="5.39247">
        <ele>296.7</ele>
        <time>2016-12-18T10:54:22Z</time>
      </trkpt>
      <trkpt lat="43.36881" lon="5.39249">
        <ele>297.18</ele>
        <time>2016-12-18T10:54:27Z</time>
      </trkpt>
      <trkpt lat="43.36877" lon="5.39249">
        <ele>297.18</ele>
        <time>2016-12-18T10:54:30Z</time>
      </trkpt>
      <trkpt lat="43.36872" lon="5.39248">
        <ele>297.18</ele>
        <time>2016-12-18T10:54:34Z</time>
      </trkpt>
      <trkpt lat="43.36869" lon="5.39248">
        <ele>297.18</ele>
        <time>2016-12-18T10:54:36Z</time>
      </trkpt>
      <trkpt lat="43.36857" lon="5.39245">
        <ele>297.67</ele>
        <time>2016-12-18T10:54:47Z</time>
      </trkpt>
      <trkpt lat="43.36851" lon="5.3924">
        <ele>297.18</ele>
        <time>2016-12-18T10:54:52Z</time>
      </trkpt>
      <trkpt lat="43.36844" lon="5.39227">
        <ele>295.74</ele>
        <time>2016-12-18T10:55:01Z</time>
      </trkpt>
      <trkpt lat="43.36838" lon="5.39211">
        <ele>294.3</ele>
        <time>2016-12-18T10:55:12Z</time>
      </trkpt>
      <trkpt lat="43.36834" lon="5.39199">
        <ele>293.34</ele>
        <time>2016-12-18T10:55:19Z</time>
      </trkpt>
      <trkpt lat="43.3683" lon="5.39188">
        <ele>292.38</ele>
        <time>2016-12-18T10:55:28Z</time>
      </trkpt>
      <trkpt lat="43.36832" lon="5.3918">
        <ele>291.9</ele>
        <time>2016-12-18T10:55:33Z</time>
      </trkpt>
      <trkpt lat="43.36828" lon="5.39165">
        <ele>291.42</ele>
        <time>2016-12-18T10:55:46Z</time>
      </trkpt>
      <trkpt lat="43.36828" lon="5.39165">
        <ele>291.42</ele>
        <time>2016-12-18T10:55:49Z</time>
      </trkpt>
      <trkpt lat="43.36822" lon="5.39163">
        <ele>291.42</ele>
        <time>2016-12-18T10:56:01Z</time>
      </trkpt>
      <trkpt lat="43.36822" lon="5.39163">
        <ele>291.42</ele>
        <time>2016-12-18T10:56:26Z</time>
      </trkpt>
      <trkpt lat="43.36821" lon="5.39163">
        <ele>291.9</ele>
        <time>2016-12-18T10:56:41Z</time>
      </trkpt>
      <trkpt lat="43.36816" lon="5.3916">
        <ele>291.9</ele>
        <time>2016-12-18T10:56:52Z</time>
      </trkpt>
      <trkpt lat="43.36816" lon="5.3916">
        <ele>291.9</ele>
        <time>2016-12-18T10:57:25Z</time>
      </trkpt>
      <trkpt lat="43.36814" lon="5.39159">
        <ele>292.38</ele>
        <time>2016-12-18T10:57:36Z</time>
      </trkpt>
      <trkpt lat="43.36803" lon="5.39158">
        <ele>291.9</ele>
        <time>2016-12-18T10:57:44Z</time>
      </trkpt>
      <trkpt lat="43.36801" lon="5.39158">
        <ele>292.38</ele>
        <time>2016-12-18T10:57:46Z</time>
      </trkpt>
      <trkpt lat="43.36788" lon="5.39159">
        <ele>291.9</ele>
        <time>2016-12-18T10:57:58Z</time>
      </trkpt>
      <trkpt lat="43.36776" lon="5.39161">
        <ele>291.42</ele>
        <time>2016-12-18T10:58:08Z</time>
      </trkpt>
      <trkpt lat="43.3677" lon="5.39161">
        <ele>291.42</ele>
        <time>2016-12-18T10:58:21Z</time>
      </trkpt>
      <trkpt lat="43.36762" lon="5.39163">
        <ele>290.94</ele>
        <time>2016-12-18T10:58:28Z</time>
      </trkpt>
      <trkpt lat="43.36754" lon="5.39166">
        <ele>290.46</ele>
        <time>2016-12-18T10:58:35Z</time>
      </trkpt>
      <trkpt lat="43.36747" lon="5.39175">
        <ele>289.97</ele>
        <time>2016-12-18T10:58:43Z</time>
      </trkpt>
      <trkpt lat="43.36744" lon="5.39192">
        <ele>290.46</ele>
        <time>2016-12-18T10:58:55Z</time>
      </trkpt>
      <trkpt lat="43.36736" lon="5.39195">
        <ele>289.49</ele>
        <time>2016-12-18T10:59:06Z</time>
      </trkpt>
      <trkpt lat="43.36732" lon="5.39192">
        <ele>289.01</ele>
        <time>2016-12-18T10:59:09Z</time>
      </trkpt>
      <trkpt lat="43.36724" lon="5.39194">
        <ele>288.53</ele>
        <time>2016-12-18T10:59:15Z</time>
      </trkpt>
      <trkpt lat="43.36715" lon="5.39196">
        <ele>287.57</ele>
        <time>2016-12-18T10:59:23Z</time>
      </trkpt>
      <trkpt lat="43.36712" lon="5.39197">
        <ele>287.57</ele>
        <time>2016-12-18T10:59:25Z</time>
      </trkpt>
      <trkpt lat="43.36705" lon="5.392">
        <ele>287.09</ele>
        <time>2016-12-18T10:59:31Z</time>
      </trkpt>
      <trkpt lat="43.36703" lon="5.39202">
        <ele>287.09</ele>
        <time>2016-12-18T10:59:33Z</time>
      </trkpt>
      <trkpt lat="43.36698" lon="5.39204">
        <ele>286.61</ele>
        <time>2016-12-18T10:59:38Z</time>
      </trkpt>
      <trkpt lat="43.36694" lon="5.39206">
        <ele>287.09</ele>
        <time>2016-12-18T10:59:41Z</time>
      </trkpt>
      <trkpt lat="43.36689" lon="5.39209">
        <ele>287.57</ele>
        <time>2016-12-18T10:59:46Z</time>
      </trkpt>
      <trkpt lat="43.36679" lon="5.39223">
        <ele>287.57</ele>
        <time>2016-12-18T10:59:58Z</time>
      </trkpt>
      <trkpt lat="43.36665" lon="5.39238">
        <ele>288.05</ele>
        <time>2016-12-18T11:00:13Z</time>
      </trkpt>
      <trkpt lat="43.36662" lon="5.39246">
        <ele>288.05</ele>
        <time>2016-12-18T11:00:25Z</time>
      </trkpt>
      <trkpt lat="43.36662" lon="5.39248">
        <ele>288.05</ele>
        <time>2016-12-18T11:00:53Z</time>
      </trkpt>
      <trkpt lat="43.36661" lon="5.39249">
        <ele>288.05</ele>
        <time>2016-12-18T11:00:54Z</time>
      </trkpt>
      <trkpt lat="43.3666" lon="5.39253">
        <ele>288.05</ele>
        <time>2016-12-18T11:00:57Z</time>
      </trkpt>
      <trkpt lat="43.36658" lon="5.39259">
        <ele>288.53</ele>
        <time>2016-12-18T11:01:09Z</time>
      </trkpt>
      <trkpt lat="43.36657" lon="5.39257">
        <ele>288.53</ele>
        <time>2016-12-18T11:01:40Z</time>
      </trkpt>
      <trkpt lat="43.36654" lon="5.39251">
        <ele>288.05</ele>
        <time>2016-12-18T11:01:46Z</time>
      </trkpt>
      <trkpt lat="43.36647" lon="5.39251">
        <ele>288.05</ele>
        <time>2016-12-18T11:01:52Z</time>
      </trkpt>
      <trkpt lat="43.36644" lon="5.39252">
        <ele>287.57</ele>
        <time>2016-12-18T11:01:56Z</time>
      </trkpt>
      <trkpt lat="43.36639" lon="5.39255">
        <ele>287.09</ele>
        <time>2016-12-18T11:02:01Z</time>
      </trkpt>
      <trkpt lat="43.36632" lon="5.39257">
        <ele>286.61</ele>
        <time>2016-12-18T11:02:07Z</time>
      </trkpt>
      <trkpt lat="43.36629" lon="5.39259">
        <ele>287.57</ele>
        <time>2016-12-18T11:02:10Z</time>
      </trkpt>
      <trkpt lat="43.36626" lon="5.39261">
        <ele>286.13</ele>
        <time>2016-12-18T11:02:13Z</time>
      </trkpt>
      <trkpt lat="43.36623" lon="5.39263">
        <ele>286.13</ele>
        <time>2016-12-18T11:02:16Z</time>
      </trkpt>
      <trkpt lat="43.3662" lon="5.39266">
        <ele>285.65</ele>
        <time>2016-12-18T11:02:19Z</time>
      </trkpt>
      <trkpt lat="43.36612" lon="5.39271">
        <ele>285.17</ele>
        <time>2016-12-18T11:02:32Z</time>
      </trkpt>
      <trkpt lat="43.3661" lon="5.39272">
        <ele>285.17</ele>
        <time>2016-12-18T11:02:34Z</time>
      </trkpt>
      <trkpt lat="43.36602" lon="5.39277">
        <ele>285.17</ele>
        <time>2016-12-18T11:02:41Z</time>
      </trkpt>
      <trkpt lat="43.36594" lon="5.39282">
        <ele>284.69</ele>
        <time>2016-12-18T11:02:48Z</time>
      </trkpt>
      <trkpt lat="43.3659" lon="5.39283">
        <ele>284.69</ele>
        <time>2016-12-18T11:02:51Z</time>
      </trkpt>
      <trkpt lat="43.36585" lon="5.39286">
        <ele>284.69</ele>
        <time>2016-12-18T11:02:55Z</time>
      </trkpt>
      <trkpt lat="43.36578" lon="5.39292">
        <ele>284.21</ele>
        <time>2016-12-18T11:03:02Z</time>
      </trkpt>
      <trkpt lat="43.36575" lon="5.39293">
        <ele>283.73</ele>
        <time>2016-12-18T11:03:05Z</time>
      </trkpt>
      <trkpt lat="43.36572" lon="5.39296">
        <ele>283.73</ele>
        <time>2016-12-18T11:03:09Z</time>
      </trkpt>
      <trkpt lat="43.36572" lon="5.39306">
        <ele>284.21</ele>
        <time>2016-12-18T11:03:16Z</time>
      </trkpt>
      <trkpt lat="43.36572" lon="5.39309">
        <ele>284.21</ele>
        <time>2016-12-18T11:03:23Z</time>
      </trkpt>
      <trkpt lat="43.36572" lon="5.39311">
        <ele>284.69</ele>
        <time>2016-12-18T11:03:25Z</time>
      </trkpt>
      <trkpt lat="43.36573" lon="5.39314">
        <ele>284.21</ele>
        <time>2016-12-18T11:03:33Z</time>
      </trkpt>
      <trkpt lat="43.36581" lon="5.39317">
        <ele>285.17</ele>
        <time>2016-12-18T11:03:44Z</time>
      </trkpt>
      <trkpt lat="43.36582" lon="5.39315">
        <ele>282.28</ele>
        <time>2016-12-18T11:03:52Z</time>
      </trkpt>
      <trkpt lat="43.36582" lon="5.39315">
        <ele>286.61</ele>
        <time>2016-12-18T11:03:53Z</time>
      </trkpt>
      <trkpt lat="43.36582" lon="5.39315">
        <ele>285.17</ele>
        <time>2016-12-18T11:04:21Z</time>
      </trkpt>
      <trkpt lat="43.36582" lon="5.39315">
        <ele>286.13</ele>
        <time>2016-12-18T11:04:53Z</time>
      </trkpt>
      <trkpt lat="43.36582" lon="5.39315">
        <ele>285.17</ele>
        <time>2016-12-18T11:05:24Z</time>
      </trkpt>
      <trkpt lat="43.36582" lon="5.39315">
        <ele>286.61</ele>
        <time>2016-12-18T11:06:00Z</time>
      </trkpt>
      <trkpt lat="43.36582" lon="5.39315">
        <ele>285.17</ele>
        <time>2016-12-18T11:06:02Z</time>
      </trkpt>
      <trkpt lat="43.36582" lon="5.39315">
        <ele>288.05</ele>
        <time>2016-12-18T11:06:21Z</time>
      </trkpt>
      <trkpt lat="43.36582" lon="5.39315">
        <ele>285.17</ele>
        <time>2016-12-18T11:06:43Z</time>
      </trkpt>
      <trkpt lat="43.36582" lon="5.39315">
        <ele>285.65</ele>
        <time>2016-12-18T11:07:12Z</time>
      </trkpt>
      <trkpt lat="43.36582" lon="5.39316">
        <ele>285.65</ele>
        <time>2016-12-18T11:07:45Z</time>
      </trkpt>
      <trkpt lat="43.36582" lon="5.39315">
        <ele>285.65</ele>
        <time>2016-12-18T11:08:21Z</time>
      </trkpt>
      <trkpt lat="43.36582" lon="5.39315">
        <ele>286.13</ele>
        <time>2016-12-18T11:08:44Z</time>
      </trkpt>
      <trkpt lat="43.36582" lon="5.39316">
        <ele>286.13</ele>
        <time>2016-12-18T11:09:15Z</time>
      </trkpt>
      <trkpt lat="43.36582" lon="5.39316">
        <ele>286.13</ele>
        <time>2016-12-18T11:09:49Z</time>
      </trkpt>
      <trkpt lat="43.36583" lon="5.39316">
        <ele>286.61</ele>
        <time>2016-12-18T11:10:13Z</time>
      </trkpt>
      <trkpt lat="43.36582" lon="5.39316">
        <ele>286.61</ele>
        <time>2016-12-18T11:10:36Z</time>
      </trkpt>
      <trkpt lat="43.36582" lon="5.39316">
        <ele>286.61</ele>
        <time>2016-12-18T11:11:00Z</time>
      </trkpt>
      <trkpt lat="43.36582" lon="5.39316">
        <ele>287.09</ele>
        <time>2016-12-18T11:11:25Z</time>
      </trkpt>
      <trkpt lat="43.36582" lon="5.39316">
        <ele>286.61</ele>
        <time>2016-12-18T11:11:48Z</time>
      </trkpt>
      <trkpt lat="43.36582" lon="5.39315">
        <ele>287.09</ele>
        <time>2016-12-18T11:12:17Z</time>
      </trkpt>
      <trkpt lat="43.36582" lon="5.39315">
        <ele>287.09</ele>
        <time>2016-12-18T11:12:53Z</time>
      </trkpt>
      <trkpt lat="43.36582" lon="5.39315">
        <ele>287.09</ele>
        <time>2016-12-18T11:13:09Z</time>
      </trkpt>
      <trkpt lat="43.36582" lon="5.39315">
        <ele>287.09</ele>
        <time>2016-12-18T11:13:38Z</time>
      </trkpt>
      <trkpt lat="43.36582" lon="5.39315">
        <ele>287.09</ele>
        <time>2016-12-18T11:13:47Z</time>
      </trkpt>
      <trkpt lat="43.36582" lon="5.39314">
        <ele>287.09</ele>
        <time>2016-12-18T11:14:17Z</time>
      </trkpt>
      <trkpt lat="43.36582" lon="5.39315">
        <ele>287.09</ele>
        <time>2016-12-18T11:14:47Z</time>
      </trkpt>
      <trkpt lat="43.36585" lon="5.39324">
        <ele>288.53</ele>
        <time>2016-12-18T11:15:00Z</time>
      </trkpt>
      <trkpt lat="43.36585" lon="5.39326">
        <ele>288.05</ele>
        <time>2016-12-18T11:15:20Z</time>
      </trkpt>
      <trkpt lat="43.36585" lon="5.39324">
        <ele>288.53</ele>
        <time>2016-12-18T11:15:44Z</time>
      </trkpt>
      <trkpt lat="43.36584" lon="5.39322">
        <ele>287.57</ele>
        <time>2016-12-18T11:15:46Z</time>
      </trkpt>
      <trkpt lat="43.36582" lon="5.39316">
        <ele>287.57</ele>
        <time>2016-12-18T11:15:59Z</time>
      </trkpt>
      <trkpt lat="43.36581" lon="5.39316">
        <ele>288.53</ele>
        <time>2016-12-18T11:16:21Z</time>
      </trkpt>
      <trkpt lat="43.36582" lon="5.39316">
        <ele>287.57</ele>
        <time>2016-12-18T11:16:41Z</time>
      </trkpt>
      <trkpt lat="43.36582" lon="5.39316">
        <ele>288.05</ele>
        <time>2016-12-18T11:17:05Z</time>
      </trkpt>
      <trkpt lat="43.36581" lon="5.39316">
        <ele>288.05</ele>
        <time>2016-12-18T11:17:28Z</time>
      </trkpt>
      <trkpt lat="43.36581" lon="5.39316">
        <ele>288.05</ele>
        <time>2016-12-18T11:17:47Z</time>
      </trkpt>
      <trkpt lat="43.36583" lon="5.39316">
        <ele>288.05</ele>
        <time>2016-12-18T11:18:08Z</time>
      </trkpt>
      <trkpt lat="43.36583" lon="5.39316">
        <ele>288.05</ele>
        <time>2016-12-18T11:18:32Z</time>
      </trkpt>
      <trkpt lat="43.36583" lon="5.39316">
        <ele>288.53</ele>
        <time>2016-12-18T11:19:02Z</time>
      </trkpt>
      <trkpt lat="43.36582" lon="5.39316">
        <ele>288.53</ele>
        <time>2016-12-18T11:19:41Z</time>
      </trkpt>
      <trkpt lat="43.36583" lon="5.39316">
        <ele>288.53</ele>
        <time>2016-12-18T11:20:07Z</time>
      </trkpt>
      <trkpt lat="43.36583" lon="5.39316">
        <ele>285.17</ele>
        <time>2016-12-18T11:20:19Z</time>
      </trkpt>
      <trkpt lat="43.36583" lon="5.39316">
        <ele>291.9</ele>
        <time>2016-12-18T11:20:20Z</time>
      </trkpt>
      <trkpt lat="43.36583" lon="5.39316">
        <ele>288.53</ele>
        <time>2016-12-18T11:20:21Z</time>
      </trkpt>
      <trkpt lat="43.36583" lon="5.39316">
        <ele>288.53</ele>
        <time>2016-12-18T11:20:50Z</time>
      </trkpt>
      <trkpt lat="43.36581" lon="5.39317">
        <ele>289.01</ele>
        <time>2016-12-18T11:21:07Z</time>
      </trkpt>
      <trkpt lat="43.36577" lon="5.39319">
        <ele>288.53</ele>
        <time>2016-12-18T11:21:12Z</time>
      </trkpt>
      <trkpt lat="43.36575" lon="5.39323">
        <ele>288.53</ele>
        <time>2016-12-18T11:21:15Z</time>
      </trkpt>
      <trkpt lat="43.36575" lon="5.39328">
        <ele>288.05</ele>
        <time>2016-12-18T11:21:28Z</time>
      </trkpt>
      <trkpt lat="43.36575" lon="5.39328">
        <ele>288.53</ele>
        <time>2016-12-18T11:21:36Z</time>
      </trkpt>
      <trkpt lat="43.36576" lon="5.39336">
        <ele>288.53</ele>
        <time>2016-12-18T11:21:43Z</time>
      </trkpt>
      <trkpt lat="43.36578" lon="5.39346">
        <ele>289.01</ele>
        <time>2016-12-18T11:21:52Z</time>
      </trkpt>
      <trkpt lat="43.36578" lon="5.39349">
        <ele>289.49</ele>
        <time>2016-12-18T11:21:55Z</time>
      </trkpt>
      <trkpt lat="43.36579" lon="5.39358">
        <ele>289.97</ele>
        <time>2016-12-18T11:22:03Z</time>
      </trkpt>
      <trkpt lat="43.36581" lon="5.39366">
        <ele>289.97</ele>
        <time>2016-12-18T11:22:09Z</time>
      </trkpt>
      <trkpt lat="43.36583" lon="5.39383">
        <ele>289.49</ele>
        <time>2016-12-18T11:22:23Z</time>
      </trkpt>
      <trkpt lat="43.36584" lon="5.39392">
        <ele>289.97</ele>
        <time>2016-12-18T11:22:31Z</time>
      </trkpt>
      <trkpt lat="43.36585" lon="5.39395">
        <ele>289.49</ele>
        <time>2016-12-18T11:22:33Z</time>
      </trkpt>
      <trkpt lat="43.36586" lon="5.39404">
        <ele>289.97</ele>
        <time>2016-12-18T11:22:41Z</time>
      </trkpt>
      <trkpt lat="43.36588" lon="5.39415">
        <ele>289.49</ele>
        <time>2016-12-18T11:22:49Z</time>
      </trkpt>
      <trkpt lat="43.36589" lon="5.3942">
        <ele>289.49</ele>
        <time>2016-12-18T11:22:54Z</time>
      </trkpt>
      <trkpt lat="43.36589" lon="5.39423">
        <ele>289.49</ele>
        <time>2016-12-18T11:22:56Z</time>
      </trkpt>
      <trkpt lat="43.3659" lon="5.39435">
        <ele>289.01</ele>
        <time>2016-12-18T11:23:10Z</time>
      </trkpt>
      <trkpt lat="43.36592" lon="5.3944">
        <ele>289.49</ele>
        <time>2016-12-18T11:23:17Z</time>
      </trkpt>
      <trkpt lat="43.36594" lon="5.39457">
        <ele>289.01</ele>
        <time>2016-12-18T11:23:29Z</time>
      </trkpt>
      <trkpt lat="43.36598" lon="5.39477">
        <ele>288.53</ele>
        <time>2016-12-18T11:23:41Z</time>
      </trkpt>
      <trkpt lat="43.36603" lon="5.39498">
        <ele>287.57</ele>
        <time>2016-12-18T11:23:54Z</time>
      </trkpt>
      <trkpt lat="43.36606" lon="5.39517">
        <ele>286.13</ele>
        <time>2016-12-18T11:24:07Z</time>
      </trkpt>
      <trkpt lat="43.36607" lon="5.39521">
        <ele>286.13</ele>
        <time>2016-12-18T11:24:18Z</time>
      </trkpt>
      <trkpt lat="43.36609" lon="5.39525">
        <ele>285.65</ele>
        <time>2016-12-18T11:24:21Z</time>
      </trkpt>
      <trkpt lat="43.36609" lon="5.39531">
        <ele>285.17</ele>
        <time>2016-12-18T11:24:24Z</time>
      </trkpt>
      <trkpt lat="43.3661" lon="5.39535">
        <ele>284.69</ele>
        <time>2016-12-18T11:24:31Z</time>
      </trkpt>
      <trkpt lat="43.36611" lon="5.39538">
        <ele>284.21</ele>
        <time>2016-12-18T11:24:33Z</time>
      </trkpt>
      <trkpt lat="43.36612" lon="5.39544">
        <ele>283.73</ele>
        <time>2016-12-18T11:24:38Z</time>
      </trkpt>
      <trkpt lat="43.36613" lon="5.39551">
        <ele>283.25</ele>
        <time>2016-12-18T11:24:43Z</time>
      </trkpt>
      <trkpt lat="43.36614" lon="5.39558">
        <ele>282.77</ele>
        <time>2016-12-18T11:24:59Z</time>
      </trkpt>
      <trkpt lat="43.36615" lon="5.39561">
        <ele>282.28</ele>
        <time>2016-12-18T11:25:31Z</time>
      </trkpt>
      <trkpt lat="43.36617" lon="5.39566">
        <ele>281.8</ele>
        <time>2016-12-18T11:25:36Z</time>
      </trkpt>
      <trkpt lat="43.36618" lon="5.39569">
        <ele>281.32</ele>
        <time>2016-12-18T11:25:38Z</time>
      </trkpt>
      <trkpt lat="43.36622" lon="5.39578">
        <ele>280.36</ele>
        <time>2016-12-18T11:25:45Z</time>
      </trkpt>
      <trkpt lat="43.36627" lon="5.39587">
        <ele>279.4</ele>
        <time>2016-12-18T11:25:51Z</time>
      </trkpt>
      <trkpt lat="43.36629" lon="5.39591">
        <ele>278.92</ele>
        <time>2016-12-18T11:25:55Z</time>
      </trkpt>
      <trkpt lat="43.36633" lon="5.39601">
        <ele>277.96</ele>
        <time>2016-12-18T11:26:02Z</time>
      </trkpt>
      <trkpt lat="43.3664" lon="5.39608">
        <ele>277.48</ele>
        <time>2016-12-18T11:26:09Z</time>
      </trkpt>
      <trkpt lat="43.3665" lon="5.39622">
        <ele>275.56</ele>
        <time>2016-12-18T11:26:21Z</time>
      </trkpt>
      <trkpt lat="43.36652" lon="5.39624">
        <ele>275.56</ele>
        <time>2016-12-18T11:26:24Z</time>
      </trkpt>
      <trkpt lat="43.36659" lon="5.39638">
        <ele>274.11</ele>
        <time>2016-12-18T11:26:36Z</time>
      </trkpt>
      <trkpt lat="43.36667" lon="5.39651">
        <ele>273.63</ele>
        <time>2016-12-18T11:26:47Z</time>
      </trkpt>
      <trkpt lat="43.3667" lon="5.39654">
        <ele>273.15</ele>
        <time>2016-12-18T11:26:51Z</time>
      </trkpt>
      <trkpt lat="43.36672" lon="5.39658">
        <ele>272.67</ele>
        <time>2016-12-18T11:26:54Z</time>
      </trkpt>
      <trkpt lat="43.36675" lon="5.39664">
        <ele>272.67</ele>
        <time>2016-12-18T11:26:59Z</time>
      </trkpt>
      <trkpt lat="43.36679" lon="5.39669">
        <ele>272.19</ele>
        <time>2016-12-18T11:27:04Z</time>
      </trkpt>
      <trkpt lat="43.36687" lon="5.39681">
        <ele>271.23</ele>
        <time>2016-12-18T11:27:14Z</time>
      </trkpt>
      <trkpt lat="43.36691" lon="5.3969">
        <ele>271.23</ele>
        <time>2016-12-18T11:27:20Z</time>
      </trkpt>
      <trkpt lat="43.36696" lon="5.39698">
        <ele>271.71</ele>
        <time>2016-12-18T11:27:27Z</time>
      </trkpt>
      <trkpt lat="43.36701" lon="5.39703">
        <ele>271.23</ele>
        <time>2016-12-18T11:27:33Z</time>
      </trkpt>
      <trkpt lat="43.36704" lon="5.3972">
        <ele>271.23</ele>
        <time>2016-12-18T11:27:44Z</time>
      </trkpt>
      <trkpt lat="43.3671" lon="5.39744">
        <ele>271.71</ele>
        <time>2016-12-18T11:27:59Z</time>
      </trkpt>
      <trkpt lat="43.36711" lon="5.39751">
        <ele>271.71</ele>
        <time>2016-12-18T11:28:04Z</time>
      </trkpt>
      <trkpt lat="43.36712" lon="5.3976">
        <ele>271.71</ele>
        <time>2016-12-18T11:28:08Z</time>
      </trkpt>
      <trkpt lat="43.36713" lon="5.39782">
        <ele>271.71</ele>
        <time>2016-12-18T11:28:21Z</time>
      </trkpt>
      <trkpt lat="43.36715" lon="5.39802">
        <ele>272.67</ele>
        <time>2016-12-18T11:28:33Z</time>
      </trkpt>
      <trkpt lat="43.36717" lon="5.3982">
        <ele>273.63</ele>
        <time>2016-12-18T11:28:45Z</time>
      </trkpt>
      <trkpt lat="43.36717" lon="5.39837">
        <ele>274.11</ele>
        <time>2016-12-18T11:28:57Z</time>
      </trkpt>
      <trkpt lat="43.36718" lon="5.39835">
        <ele>274.11</ele>
        <time>2016-12-18T11:29:23Z</time>
      </trkpt>
      <trkpt lat="43.36717" lon="5.39835">
        <ele>274.11</ele>
        <time>2016-12-18T11:29:34Z</time>
      </trkpt>
      <trkpt lat="43.36719" lon="5.39841">
        <ele>275.07</ele>
        <time>2016-12-18T11:29:39Z</time>
      </trkpt>
      <trkpt lat="43.36722" lon="5.39861">
        <ele>276.04</ele>
        <time>2016-12-18T11:29:52Z</time>
      </trkpt>
      <trkpt lat="43.36722" lon="5.39872">
        <ele>277</ele>
        <time>2016-12-18T11:29:58Z</time>
      </trkpt>
      <trkpt lat="43.3672" lon="5.39875">
        <ele>277.48</ele>
        <time>2016-12-18T11:30:00Z</time>
      </trkpt>
      <trkpt lat="43.36718" lon="5.39881">
        <ele>278.44</ele>
        <time>2016-12-18T11:30:04Z</time>
      </trkpt>
      <trkpt lat="43.36715" lon="5.3989">
        <ele>278.44</ele>
        <time>2016-12-18T11:30:10Z</time>
      </trkpt>
      <trkpt lat="43.36701" lon="5.39909">
        <ele>279.4</ele>
        <time>2016-12-18T11:30:27Z</time>
      </trkpt>
      <trkpt lat="43.36695" lon="5.39917">
        <ele>280.36</ele>
        <time>2016-12-18T11:30:34Z</time>
      </trkpt>
      <trkpt lat="43.36682" lon="5.39934">
        <ele>280.84</ele>
        <time>2016-12-18T11:30:49Z</time>
      </trkpt>
      <trkpt lat="43.36676" lon="5.39953">
        <ele>280.84</ele>
        <time>2016-12-18T11:31:02Z</time>
      </trkpt>
      <trkpt lat="43.36673" lon="5.39969">
        <ele>279.88</ele>
        <time>2016-12-18T11:31:14Z</time>
      </trkpt>
      <trkpt lat="43.36672" lon="5.39977">
        <ele>279.88</ele>
        <time>2016-12-18T11:31:19Z</time>
      </trkpt>
      <trkpt lat="43.36671" lon="5.39985">
        <ele>279.4</ele>
        <time>2016-12-18T11:31:31Z</time>
      </trkpt>
      <trkpt lat="43.36667" lon="5.39987">
        <ele>279.4</ele>
        <time>2016-12-18T11:31:34Z</time>
      </trkpt>
      <trkpt lat="43.36663" lon="5.39988">
        <ele>278.92</ele>
        <time>2016-12-18T11:31:38Z</time>
      </trkpt>
      <trkpt lat="43.36649" lon="5.39991">
        <ele>278.44</ele>
        <time>2016-12-18T11:31:50Z</time>
      </trkpt>
      <trkpt lat="43.36634" lon="5.39992">
        <ele>277.96</ele>
        <time>2016-12-18T11:32:04Z</time>
      </trkpt>
      <trkpt lat="43.36627" lon="5.39995">
        <ele>277.48</ele>
        <time>2016-12-18T11:32:11Z</time>
      </trkpt>
      <trkpt lat="43.36611" lon="5.39997">
        <ele>277</ele>
        <time>2016-12-18T11:32:23Z</time>
      </trkpt>
      <trkpt lat="43.36596" lon="5.39999">
        <ele>277</ele>
        <time>2016-12-18T11:32:35Z</time>
      </trkpt>
      <trkpt lat="43.36592" lon="5.39999">
        <ele>276.52</ele>
        <time>2016-12-18T11:32:49Z</time>
      </trkpt>
      <trkpt lat="43.36592" lon="5.39999">
        <ele>276.52</ele>
        <time>2016-12-18T11:33:14Z</time>
      </trkpt>
      <trkpt lat="43.36592" lon="5.39999">
        <ele>276.52</ele>
        <time>2016-12-18T11:33:33Z</time>
      </trkpt>
      <trkpt lat="43.36593" lon="5.40007">
        <ele>276.04</ele>
        <time>2016-12-18T11:33:37Z</time>
      </trkpt>
      <trkpt lat="43.36598" lon="5.40024">
        <ele>275.07</ele>
        <time>2016-12-18T11:33:50Z</time>
      </trkpt>
      <trkpt lat="43.366" lon="5.40037">
        <ele>273.15</ele>
        <time>2016-12-18T11:34:01Z</time>
      </trkpt>
      <trkpt lat="43.366" lon="5.40043">
        <ele>272.67</ele>
        <time>2016-12-18T11:34:06Z</time>
      </trkpt>
      <trkpt lat="43.36601" lon="5.40047">
        <ele>271.71</ele>
        <time>2016-12-18T11:34:09Z</time>
      </trkpt>
      <trkpt lat="43.36602" lon="5.40051">
        <ele>271.23</ele>
        <time>2016-12-18T11:34:12Z</time>
      </trkpt>
      <trkpt lat="43.36608" lon="5.40069">
        <ele>268.83</ele>
        <time>2016-12-18T11:34:25Z</time>
      </trkpt>
      <trkpt lat="43.36611" lon="5.40082">
        <ele>267.38</ele>
        <time>2016-12-18T11:34:34Z</time>
      </trkpt>
      <trkpt lat="43.36615" lon="5.40097">
        <ele>264.5</ele>
        <time>2016-12-18T11:34:48Z</time>
      </trkpt>
      <trkpt lat="43.36617" lon="5.40106">
        <ele>263.54</ele>
        <time>2016-12-18T11:34:55Z</time>
      </trkpt>
      <trkpt lat="43.36622" lon="5.40128">
        <ele>262.1</ele>
        <time>2016-12-18T11:35:08Z</time>
      </trkpt>
      <trkpt lat="43.36624" lon="5.40135">
        <ele>262.1</ele>
        <time>2016-12-18T11:35:13Z</time>
      </trkpt>
      <trkpt lat="43.36625" lon="5.40142">
        <ele>261.62</ele>
        <time>2016-12-18T11:35:18Z</time>
      </trkpt>
      <trkpt lat="43.36626" lon="5.40153">
        <ele>262.1</ele>
        <time>2016-12-18T11:35:26Z</time>
      </trkpt>
      <trkpt lat="43.36628" lon="5.40161">
        <ele>262.58</ele>
        <time>2016-12-18T11:35:38Z</time>
      </trkpt>
      <trkpt lat="43.36629" lon="5.40167">
        <ele>262.58</ele>
        <time>2016-12-18T11:35:42Z</time>
      </trkpt>
      <trkpt lat="43.36634" lon="5.40187">
        <ele>262.58</ele>
        <time>2016-12-18T11:35:54Z</time>
      </trkpt>
      <trkpt lat="43.36639" lon="5.40198">
        <ele>263.06</ele>
        <time>2016-12-18T11:36:03Z</time>
      </trkpt>
      <trkpt lat="43.36646" lon="5.40213">
        <ele>264.02</ele>
        <time>2016-12-18T11:36:18Z</time>
      </trkpt>
      <trkpt lat="43.36647" lon="5.40217">
        <ele>264.02</ele>
        <time>2016-12-18T11:36:30Z</time>
      </trkpt>
      <trkpt lat="43.36652" lon="5.40233">
        <ele>264.98</ele>
        <time>2016-12-18T11:36:41Z</time>
      </trkpt>
      <trkpt lat="43.36656" lon="5.40258">
        <ele>264.98</ele>
        <time>2016-12-18T11:36:55Z</time>
      </trkpt>
      <trkpt lat="43.36657" lon="5.40264">
        <ele>265.94</ele>
        <time>2016-12-18T11:36:59Z</time>
      </trkpt>
      <trkpt lat="43.36657" lon="5.40282">
        <ele>265.46</ele>
        <time>2016-12-18T11:37:12Z</time>
      </trkpt>
      <trkpt lat="43.36655" lon="5.40289">
        <ele>264.98</ele>
        <time>2016-12-18T11:37:22Z</time>
      </trkpt>
      <trkpt lat="43.36654" lon="5.40291">
        <ele>264.98</ele>
        <time>2016-12-18T11:37:24Z</time>
      </trkpt>
      <trkpt lat="43.36656" lon="5.40309">
        <ele>264.5</ele>
        <time>2016-12-18T11:37:36Z</time>
      </trkpt>
      <trkpt lat="43.36656" lon="5.4031">
        <ele>264.5</ele>
        <time>2016-12-18T11:37:37Z</time>
      </trkpt>
      <trkpt lat="43.36655" lon="5.40321">
        <ele>264.02</ele>
        <time>2016-12-18T11:37:43Z</time>
      </trkpt>
      <trkpt lat="43.36654" lon="5.4034">
        <ele>263.06</ele>
        <time>2016-12-18T11:37:54Z</time>
      </trkpt>
      <trkpt lat="43.36648" lon="5.40356">
        <ele>263.06</ele>
        <time>2016-12-18T11:38:06Z</time>
      </trkpt>
      <trkpt lat="43.36641" lon="5.40364">
        <ele>262.58</ele>
        <time>2016-12-18T11:38:15Z</time>
      </trkpt>
      <trkpt lat="43.3663" lon="5.40377">
        <ele>262.1</ele>
        <time>2016-12-18T11:38:30Z</time>
      </trkpt>
      <trkpt lat="43.36628" lon="5.4038">
        <ele>262.1</ele>
        <time>2016-12-18T11:38:33Z</time>
      </trkpt>
      <trkpt lat="43.36622" lon="5.4039">
        <ele>261.62</ele>
        <time>2016-12-18T11:38:46Z</time>
      </trkpt>
      <trkpt lat="43.36612" lon="5.40409">
        <ele>261.14</ele>
        <time>2016-12-18T11:39:00Z</time>
      </trkpt>
      <trkpt lat="43.36603" lon="5.40426">
        <ele>260.65</ele>
        <time>2016-12-18T11:39:14Z</time>
      </trkpt>
      <trkpt lat="43.36599" lon="5.40437">
        <ele>261.14</ele>
        <time>2016-12-18T11:39:28Z</time>
      </trkpt>
      <trkpt lat="43.36597" lon="5.40452">
        <ele>262.1</ele>
        <time>2016-12-18T11:39:40Z</time>
      </trkpt>
      <trkpt lat="43.36593" lon="5.40464">
        <ele>262.58</ele>
        <time>2016-12-18T11:39:49Z</time>
      </trkpt>
      <trkpt lat="43.36588" lon="5.40482">
        <ele>265.46</ele>
        <time>2016-12-18T11:40:01Z</time>
      </trkpt>
      <trkpt lat="43.36584" lon="5.40495">
        <ele>266.9</ele>
        <time>2016-12-18T11:40:11Z</time>
      </trkpt>
      <trkpt lat="43.36584" lon="5.40496">
        <ele>266.9</ele>
        <time>2016-12-18T11:40:12Z</time>
      </trkpt>
      <trkpt lat="43.36583" lon="5.40503">
        <ele>267.86</ele>
        <time>2016-12-18T11:40:18Z</time>
      </trkpt>
      <trkpt lat="43.36583" lon="5.40507">
        <ele>268.83</ele>
        <time>2016-12-18T11:40:21Z</time>
      </trkpt>
      <trkpt lat="43.36583" lon="5.40509">
        <ele>269.79</ele>
        <time>2016-12-18T11:40:23Z</time>
      </trkpt>
      <trkpt lat="43.36581" lon="5.40516">
        <ele>271.23</ele>
        <time>2016-12-18T11:40:29Z</time>
      </trkpt>
      <trkpt lat="43.3658" lon="5.40523">
        <ele>271.71</ele>
        <time>2016-12-18T11:40:34Z</time>
      </trkpt>
      <trkpt lat="43.36579" lon="5.40528">
        <ele>272.67</ele>
        <time>2016-12-18T11:40:38Z</time>
      </trkpt>
      <trkpt lat="43.36576" lon="5.40545">
        <ele>273.63</ele>
        <time>2016-12-18T11:40:49Z</time>
      </trkpt>
      <trkpt lat="43.36572" lon="5.40552">
        <ele>275.56</ele>
        <time>2016-12-18T11:40:56Z</time>
      </trkpt>
      <trkpt lat="43.36563" lon="5.40571">
        <ele>277</ele>
        <time>2016-12-18T11:41:11Z</time>
      </trkpt>
      <trkpt lat="43.36548" lon="5.40582">
        <ele>277.48</ele>
        <time>2016-12-18T11:41:26Z</time>
      </trkpt>
      <trkpt lat="43.36538" lon="5.40585">
        <ele>277.48</ele>
        <time>2016-12-18T11:41:35Z</time>
      </trkpt>
      <trkpt lat="43.36527" lon="5.40583">
        <ele>277.48</ele>
        <time>2016-12-18T11:41:45Z</time>
      </trkpt>
      <trkpt lat="43.36512" lon="5.40585">
        <ele>277</ele>
        <time>2016-12-18T11:41:58Z</time>
      </trkpt>
      <trkpt lat="43.36508" lon="5.40585">
        <ele>276.52</ele>
        <time>2016-12-18T11:42:03Z</time>
      </trkpt>
      <trkpt lat="43.365" lon="5.40585">
        <ele>276.04</ele>
        <time>2016-12-18T11:42:12Z</time>
      </trkpt>
      <trkpt lat="43.36487" lon="5.40588">
        <ele>276.04</ele>
        <time>2016-12-18T11:42:24Z</time>
      </trkpt>
      <trkpt lat="43.36484" lon="5.4059">
        <ele>276.04</ele>
        <time>2016-12-18T11:42:27Z</time>
      </trkpt>
      <trkpt lat="43.36469" lon="5.40602">
        <ele>275.56</ele>
        <time>2016-12-18T11:42:41Z</time>
      </trkpt>
      <trkpt lat="43.36464" lon="5.40608">
        <ele>275.07</ele>
        <time>2016-12-18T11:42:47Z</time>
      </trkpt>
      <trkpt lat="43.36456" lon="5.40626">
        <ele>275.07</ele>
        <time>2016-12-18T11:42:59Z</time>
      </trkpt>
      <trkpt lat="43.3645" lon="5.40646">
        <ele>275.07</ele>
        <time>2016-12-18T11:43:13Z</time>
      </trkpt>
      <trkpt lat="43.36445" lon="5.40657">
        <ele>275.07</ele>
        <time>2016-12-18T11:43:23Z</time>
      </trkpt>
      <trkpt lat="43.36431" lon="5.4066">
        <ele>273.15</ele>
        <time>2016-12-18T11:43:37Z</time>
      </trkpt>
      <trkpt lat="43.36418" lon="5.40654">
        <ele>272.67</ele>
        <time>2016-12-18T11:43:49Z</time>
      </trkpt>
      <trkpt lat="43.36406" lon="5.40651">
        <ele>272.19</ele>
        <time>2016-12-18T11:44:01Z</time>
      </trkpt>
      <trkpt lat="43.36393" lon="5.40644">
        <ele>271.71</ele>
        <time>2016-12-18T11:44:14Z</time>
      </trkpt>
      <trkpt lat="43.36386" lon="5.40639">
        <ele>271.23</ele>
        <time>2016-12-18T11:44:25Z</time>
      </trkpt>
      <trkpt lat="43.36369" lon="5.40631">
        <ele>270.75</ele>
        <time>2016-12-18T11:44:40Z</time>
      </trkpt>
      <trkpt lat="43.36356" lon="5.40627">
        <ele>270.27</ele>
        <time>2016-12-18T11:44:52Z</time>
      </trkpt>
      <trkpt lat="43.36338" lon="5.40618">
        <ele>270.75</ele>
        <time>2016-12-18T11:45:07Z</time>
      </trkpt>
      <trkpt lat="43.36323" lon="5.4061">
        <ele>270.75</ele>
        <time>2016-12-18T11:45:20Z</time>
      </trkpt>
      <trkpt lat="43.36314" lon="5.40613">
        <ele>271.23</ele>
        <time>2016-12-18T11:45:32Z</time>
      </trkpt>
      <trkpt lat="43.36313" lon="5.40617">
        <ele>272.67</ele>
        <time>2016-12-18T11:45:36Z</time>
      </trkpt>
      <trkpt lat="43.36312" lon="5.40623">
        <ele>272.19</ele>
        <time>2016-12-18T11:45:41Z</time>
      </trkpt>
      <trkpt lat="43.36308" lon="5.40641">
        <ele>274.11</ele>
        <time>2016-12-18T11:45:54Z</time>
      </trkpt>
      <trkpt lat="43.363" lon="5.40658">
        <ele>274.59</ele>
        <time>2016-12-18T11:46:08Z</time>
      </trkpt>
      <trkpt lat="43.36295" lon="5.40665">
        <ele>275.07</ele>
        <time>2016-12-18T11:46:17Z</time>
      </trkpt>
      <trkpt lat="43.36289" lon="5.40667">
        <ele>275.56</ele>
        <time>2016-12-18T11:46:23Z</time>
      </trkpt>
      <trkpt lat="43.36278" lon="5.40669">
        <ele>275.56</ele>
        <time>2016-12-18T11:46:35Z</time>
      </trkpt>
      <trkpt lat="43.36262" lon="5.40668">
        <ele>276.52</ele>
        <time>2016-12-18T11:46:48Z</time>
      </trkpt>
      <trkpt lat="43.36243" lon="5.40665">
        <ele>276.52</ele>
        <time>2016-12-18T11:47:03Z</time>
      </trkpt>
      <trkpt lat="43.36227" lon="5.4067">
        <ele>276.52</ele>
        <time>2016-12-18T11:47:16Z</time>
      </trkpt>
      <trkpt lat="43.36225" lon="5.4067">
        <ele>276.52</ele>
        <time>2016-12-18T11:47:18Z</time>
      </trkpt>
      <trkpt lat="43.36216" lon="5.40678">
        <ele>275.56</ele>
        <time>2016-12-18T11:47:33Z</time>
      </trkpt>
      <trkpt lat="43.36215" lon="5.40682">
        <ele>275.07</ele>
        <time>2016-12-18T11:47:37Z</time>
      </trkpt>
      <trkpt lat="43.36214" lon="5.40688">
        <ele>275.07</ele>
        <time>2016-12-18T11:47:41Z</time>
      </trkpt>
      <trkpt lat="43.36217" lon="5.40706">
        <ele>275.07</ele>
        <time>2016-12-18T11:47:54Z</time>
      </trkpt>
      <trkpt lat="43.36218" lon="5.40711">
        <ele>275.07</ele>
        <time>2016-12-18T11:47:58Z</time>
      </trkpt>
      <trkpt lat="43.3622" lon="5.40716">
        <ele>274.59</ele>
        <time>2016-12-18T11:48:02Z</time>
      </trkpt>
      <trkpt lat="43.36224" lon="5.40729">
        <ele>274.59</ele>
        <time>2016-12-18T11:48:17Z</time>
      </trkpt>
      <trkpt lat="43.36224" lon="5.4073">
        <ele>274.11</ele>
        <time>2016-12-18T11:48:23Z</time>
      </trkpt>
      <trkpt lat="43.36224" lon="5.40742">
        <ele>274.11</ele>
        <time>2016-12-18T11:48:31Z</time>
      </trkpt>
      <trkpt lat="43.36224" lon="5.40748">
        <ele>273.63</ele>
        <time>2016-12-18T11:48:35Z</time>
      </trkpt>
      <trkpt lat="43.36227" lon="5.40767">
        <ele>272.67</ele>
        <time>2016-12-18T11:48:50Z</time>
      </trkpt>
      <trkpt lat="43.36227" lon="5.40769">
        <ele>272.19</ele>
        <time>2016-12-18T11:48:59Z</time>
      </trkpt>
      <trkpt lat="43.36231" lon="5.40776">
        <ele>271.23</ele>
        <time>2016-12-18T11:49:15Z</time>
      </trkpt>
      <trkpt lat="43.36232" lon="5.40778">
        <ele>271.71</ele>
        <time>2016-12-18T11:49:29Z</time>
      </trkpt>
      <trkpt lat="43.36235" lon="5.40788">
        <ele>270.75</ele>
        <time>2016-12-18T11:49:42Z</time>
      </trkpt>
      <trkpt lat="43.36236" lon="5.40796">
        <ele>269.79</ele>
        <time>2016-12-18T11:50:00Z</time>
      </trkpt>
      <trkpt lat="43.36235" lon="5.40803">
        <ele>269.79</ele>
        <time>2016-12-18T11:50:05Z</time>
      </trkpt>
      <trkpt lat="43.3623" lon="5.40814">
        <ele>268.35</ele>
        <time>2016-12-18T11:50:14Z</time>
      </trkpt>
      <trkpt lat="43.36232" lon="5.40828">
        <ele>266.9</ele>
        <time>2016-12-18T11:50:25Z</time>
      </trkpt>
      <trkpt lat="43.36231" lon="5.40847">
        <ele>264.5</ele>
        <time>2016-12-18T11:50:40Z</time>
      </trkpt>
      <trkpt lat="43.3623" lon="5.40864">
        <ele>261.62</ele>
        <time>2016-12-18T11:50:54Z</time>
      </trkpt>
      <trkpt lat="43.36232" lon="5.40876">
        <ele>258.25</ele>
        <time>2016-12-18T11:51:09Z</time>
      </trkpt>
      <trkpt lat="43.36233" lon="5.40889">
        <ele>255.37</ele>
        <time>2016-12-18T11:51:25Z</time>
      </trkpt>
      <trkpt lat="43.36235" lon="5.40902">
        <ele>252</ele>
        <time>2016-12-18T11:51:38Z</time>
      </trkpt>
      <trkpt lat="43.36228" lon="5.40911">
        <ele>249.6</ele>
        <time>2016-12-18T11:51:52Z</time>
      </trkpt>
      <trkpt lat="43.36224" lon="5.40919">
        <ele>247.68</ele>
        <time>2016-12-18T11:52:04Z</time>
      </trkpt>
      <trkpt lat="43.36222" lon="5.40926">
        <ele>245.27</ele>
        <time>2016-12-18T11:52:20Z</time>
      </trkpt>
      <trkpt lat="43.36218" lon="5.4093">
        <ele>242.39</ele>
        <time>2016-12-18T11:52:30Z</time>
      </trkpt>
      <trkpt lat="43.36219" lon="5.40939">
        <ele>241.91</ele>
        <time>2016-12-18T11:52:40Z</time>
      </trkpt>
      <trkpt lat="43.36225" lon="5.4095">
        <ele>240.47</ele>
        <time>2016-12-18T11:52:54Z</time>
      </trkpt>
      <trkpt lat="43.36226" lon="5.40951">
        <ele>240.95</ele>
        <time>2016-12-18T11:53:16Z</time>
      </trkpt>
      <trkpt lat="43.36226" lon="5.40952">
        <ele>240.95</ele>
        <time>2016-12-18T11:53:43Z</time>
      </trkpt>
      <trkpt lat="43.36226" lon="5.40953">
        <ele>240.95</ele>
        <time>2016-12-18T11:54:09Z</time>
      </trkpt>
      <trkpt lat="43.3622" lon="5.4096">
        <ele>238.54</ele>
        <time>2016-12-18T11:54:22Z</time>
      </trkpt>
      <trkpt lat="43.36216" lon="5.40965">
        <ele>238.06</ele>
        <time>2016-12-18T11:54:28Z</time>
      </trkpt>
      <trkpt lat="43.36206" lon="5.40976">
        <ele>237.58</ele>
        <time>2016-12-18T11:54:40Z</time>
      </trkpt>
      <trkpt lat="43.36208" lon="5.40985">
        <ele>239.02</ele>
        <time>2016-12-18T11:54:50Z</time>
      </trkpt>
      <trkpt lat="43.36207" lon="5.40993">
        <ele>241.91</ele>
        <time>2016-12-18T11:55:00Z</time>
      </trkpt>
      <trkpt lat="43.362" lon="5.41003">
        <ele>244.79</ele>
        <time>2016-12-18T11:55:15Z</time>
      </trkpt>
      <trkpt lat="43.36198" lon="5.41008">
        <ele>245.75</ele>
        <time>2016-12-18T11:55:29Z</time>
      </trkpt>
      <trkpt lat="43.36194" lon="5.41016">
        <ele>247.68</ele>
        <time>2016-12-18T11:55:48Z</time>
      </trkpt>
      <trkpt lat="43.36192" lon="5.41026">
        <ele>248.16</ele>
        <time>2016-12-18T11:56:03Z</time>
      </trkpt>
      <trkpt lat="43.3619" lon="5.41024">
        <ele>248.64</ele>
        <time>2016-12-18T11:56:19Z</time>
      </trkpt>
      <trkpt lat="43.3619" lon="5.41024">
        <ele>249.12</ele>
        <time>2016-12-18T11:56:36Z</time>
      </trkpt>
      <trkpt lat="43.36189" lon="5.41023">
        <ele>248.64</ele>
        <time>2016-12-18T11:57:06Z</time>
      </trkpt>
      <trkpt lat="43.3619" lon="5.41021">
        <ele>248.16</ele>
        <time>2016-12-18T11:57:28Z</time>
      </trkpt>
      <trkpt lat="43.3619" lon="5.41022">
        <ele>248.16</ele>
        <time>2016-12-18T11:57:52Z</time>
      </trkpt>
      <trkpt lat="43.36189" lon="5.41022">
        <ele>248.16</ele>
        <time>2016-12-18T11:58:18Z</time>
      </trkpt>
      <trkpt lat="43.3619" lon="5.41022">
        <ele>248.16</ele>
        <time>2016-12-18T11:58:49Z</time>
      </trkpt>
      <trkpt lat="43.3619" lon="5.41022">
        <ele>248.64</ele>
        <time>2016-12-18T11:59:19Z</time>
      </trkpt>
      <trkpt lat="43.3619" lon="5.41022">
        <ele>248.64</ele>
        <time>2016-12-18T11:59:41Z</time>
      </trkpt>
      <trkpt lat="43.36191" lon="5.41022">
        <ele>248.64</ele>
        <time>2016-12-18T11:59:56Z</time>
      </trkpt>
      <trkpt lat="43.36189" lon="5.41024">
        <ele>249.6</ele>
        <time>2016-12-18T12:00:09Z</time>
      </trkpt>
      <trkpt lat="43.36184" lon="5.41031">
        <ele>250.56</ele>
        <time>2016-12-18T12:00:16Z</time>
      </trkpt>
      <trkpt lat="43.36181" lon="5.41033">
        <ele>250.56</ele>
        <time>2016-12-18T12:00:20Z</time>
      </trkpt>
      <trkpt lat="43.36178" lon="5.41035">
        <ele>251.04</ele>
        <time>2016-12-18T12:00:23Z</time>
      </trkpt>
      <trkpt lat="43.36175" lon="5.41036">
        <ele>250.56</ele>
        <time>2016-12-18T12:00:27Z</time>
      </trkpt>
      <trkpt lat="43.36171" lon="5.41043">
        <ele>252</ele>
        <time>2016-12-18T12:00:40Z</time>
      </trkpt>
      <trkpt lat="43.3617" lon="5.41043">
        <ele>252.48</ele>
        <time>2016-12-18T12:00:41Z</time>
      </trkpt>
      <trkpt lat="43.36167" lon="5.41046">
        <ele>252.96</ele>
        <time>2016-12-18T12:00:45Z</time>
      </trkpt>
      <trkpt lat="43.36158" lon="5.41052">
        <ele>253.93</ele>
        <time>2016-12-18T12:01:00Z</time>
      </trkpt>
      <trkpt lat="43.36157" lon="5.41053">
        <ele>254.41</ele>
        <time>2016-12-18T12:01:06Z</time>
      </trkpt>
      <trkpt lat="43.36155" lon="5.41056">
        <ele>254.89</ele>
        <time>2016-12-18T12:01:09Z</time>
      </trkpt>
      <trkpt lat="43.36151" lon="5.41062">
        <ele>255.37</ele>
        <time>2016-12-18T12:01:15Z</time>
      </trkpt>
      <trkpt lat="43.36145" lon="5.41071">
        <ele>256.81</ele>
        <time>2016-12-18T12:01:26Z</time>
      </trkpt>
      <trkpt lat="43.36144" lon="5.41071">
        <ele>256.33</ele>
        <time>2016-12-18T12:01:27Z</time>
      </trkpt>
      <trkpt lat="43.36142" lon="5.41075">
        <ele>256.33</ele>
        <time>2016-12-18T12:01:30Z</time>
      </trkpt>
      <trkpt lat="43.36141" lon="5.41079">
        <ele>256.81</ele>
        <time>2016-12-18T12:01:33Z</time>
      </trkpt>
      <trkpt lat="43.36133" lon="5.41093">
        <ele>257.29</ele>
        <time>2016-12-18T12:01:45Z</time>
      </trkpt>
      <trkpt lat="43.36124" lon="5.41107">
        <ele>258.25</ele>
        <time>2016-12-18T12:01:57Z</time>
      </trkpt>
      <trkpt lat="43.36116" lon="5.4112">
        <ele>259.21</ele>
        <time>2016-12-18T12:02:09Z</time>
      </trkpt>
      <trkpt lat="43.36115" lon="5.41122">
        <ele>258.25</ele>
        <time>2016-12-18T12:02:13Z</time>
      </trkpt>
      <trkpt lat="43.36106" lon="5.4114">
        <ele>258.25</ele>
        <time>2016-12-18T12:02:27Z</time>
      </trkpt>
      <trkpt lat="43.36102" lon="5.41147">
        <ele>258.73</ele>
        <time>2016-12-18T12:02:34Z</time>
      </trkpt>
      <trkpt lat="43.36093" lon="5.41165">
        <ele>258.73</ele>
        <time>2016-12-18T12:02:47Z</time>
      </trkpt>
      <trkpt lat="43.36087" lon="5.41176">
        <ele>258.25</ele>
        <time>2016-12-18T12:02:55Z</time>
      </trkpt>
      <trkpt lat="43.36077" lon="5.41192">
        <ele>258.25</ele>
        <time>2016-12-18T12:03:09Z</time>
      </trkpt>
      <trkpt lat="43.36075" lon="5.41195">
        <ele>258.25</ele>
        <time>2016-12-18T12:03:11Z</time>
      </trkpt>
      <trkpt lat="43.3607" lon="5.41201">
        <ele>258.25</ele>
        <time>2016-12-18T12:03:17Z</time>
      </trkpt>
      <trkpt lat="43.3606" lon="5.4122">
        <ele>256.81</ele>
        <time>2016-12-18T12:03:31Z</time>
      </trkpt>
      <trkpt lat="43.36058" lon="5.41239">
        <ele>256.81</ele>
        <time>2016-12-18T12:03:44Z</time>
      </trkpt>
      <trkpt lat="43.36056" lon="5.41247">
        <ele>257.29</ele>
        <time>2016-12-18T12:03:50Z</time>
      </trkpt>
      <trkpt lat="43.36045" lon="5.41254">
        <ele>256.33</ele>
        <time>2016-12-18T12:04:01Z</time>
      </trkpt>
      <trkpt lat="43.36038" lon="5.41257">
        <ele>255.37</ele>
        <time>2016-12-18T12:04:08Z</time>
      </trkpt>
      <trkpt lat="43.36034" lon="5.41255">
        <ele>255.85</ele>
        <time>2016-12-18T12:04:20Z</time>
      </trkpt>
      <trkpt lat="43.36034" lon="5.41256">
        <ele>255.37</ele>
        <time>2016-12-18T12:04:40Z</time>
      </trkpt>
      <trkpt lat="43.36034" lon="5.41257">
        <ele>256.33</ele>
        <time>2016-12-18T12:04:58Z</time>
      </trkpt>
      <trkpt lat="43.36034" lon="5.41258">
        <ele>255.85</ele>
        <time>2016-12-18T12:05:20Z</time>
      </trkpt>
      <trkpt lat="43.36034" lon="5.41258">
        <ele>255.85</ele>
        <time>2016-12-18T12:05:44Z</time>
      </trkpt>
      <trkpt lat="43.36034" lon="5.41258">
        <ele>255.85</ele>
        <time>2016-12-18T12:06:03Z</time>
      </trkpt>
      <trkpt lat="43.36033" lon="5.41259">
        <ele>255.85</ele>
        <time>2016-12-18T12:06:28Z</time>
      </trkpt>
    </trkseg>
  </trk>
</gpx>